UAE9987 OMDW-EBBR
Flight info
| Callsign | UAE9987 |
|---|---|
| Flight time | 7h 28m |
| Altitude | 34000 |
| Route | RIDAP M557 TUMAK L602 GADSI M860 SEPTU DCT VUSEB/N0491F360 M860 NINVA UM860 ODALI UL852 NEGEM DCT DEGET/N0473F380 DCT BEGLA DCT FMD DCT DITIS DCT OKG DCT LONLI DCT MARZA DCT TEKTU DCT TESGA DCT UMUPU T880 BATTY |
| Aircraft | B77W/H-SDE1E2E3FGHIJ2J3J4J5M1RWXY/LB1D1 |
Departure
| Time | 2026-04-07 11:08 |
|---|---|
| Airport | Al Maktoum International Airport (OMDW) |
Arrival
| Time | 2026-04-07 18:36 |
|---|---|
| Airport | Brussels Airport (EBBR) |
| Time | Latitude | Longitude | Altitude | Speed | Heading |
|---|---|---|---|---|---|
| 2026-04-07 08:48 | 24.88877 | 55.16196 | 164 ft | 0 kts | 207° |
| 2026-04-07 10:59 | 24.88883 | 55.16199 | 164 ft | 4 kts | 210° |
| 2026-04-07 10:59 | 24.88902 | 55.16213 | 164 ft | 4 kts | 208° |
| 2026-04-07 10:59 | 24.88923 | 55.16222 | 164 ft | 4 kts | 180° |
| 2026-04-07 11:00 | 24.88939 | 55.16219 | 164 ft | 4 kts | 136° |
| 2026-04-07 11:00 | 24.88953 | 55.16198 | 164 ft | 4 kts | 117° |
| 2026-04-07 11:00 | 24.88962 | 55.16180 | 164 ft | 0 kts | 121° |
| 2026-04-07 11:04 | 24.88961 | 55.16182 | 164 ft | 3 kts | 121° |
| 2026-04-07 11:04 | 24.88925 | 55.16249 | 164 ft | 19 kts | 120° |
| 2026-04-07 11:04 | 24.88829 | 55.16421 | 164 ft | 31 kts | 120° |
| 2026-04-07 11:05 | 24.88752 | 55.16572 | 164 ft | 18 kts | 98° |
| 2026-04-07 11:05 | 24.88863 | 55.16694 | 163 ft | 29 kts | 32° |
| 2026-04-07 11:05 | 24.88944 | 55.16808 | 163 ft | 17 kts | 111° |
| 2026-04-07 11:05 | 24.88874 | 55.16928 | 163 ft | 22 kts | 122° |
| 2026-04-07 11:06 | 24.88777 | 55.17104 | 163 ft | 28 kts | 120° |
| 2026-04-07 11:06 | 24.88676 | 55.17288 | 163 ft | 28 kts | 120° |
| 2026-04-07 11:06 | 24.88661 | 55.17447 | 163 ft | 20 kts | 44° |
| 2026-04-07 11:06 | 24.88778 | 55.17529 | 162 ft | 20 kts | 31° |
| 2026-04-07 11:07 | 24.88876 | 55.17519 | 163 ft | 15 kts | 314° |
| 2026-04-07 11:07 | 24.88961 | 55.17371 | 163 ft | 47 kts | 300° |
| 2026-04-07 11:07 | 24.89295 | 55.16765 | 161 ft | 137 kts | 301° |
| 2026-04-07 11:07 | 24.89932 | 55.15598 | 324 ft | 206 kts | 301° |
| 2026-04-07 11:08 | 24.90683 | 55.14245 | 1076 ft | 211 kts | 301° |
| 2026-04-07 11:08 | 24.91488 | 55.12825 | 2104 ft | 227 kts | 302° |
| 2026-04-07 11:08 | 24.92327 | 55.11340 | 3000 ft | 232 kts | 301° |
| 2026-04-07 11:08 | 24.93190 | 55.09769 | 3660 ft | 240 kts | 301° |
| 2026-04-07 11:09 | 24.94067 | 55.08183 | 4362 ft | 244 kts | 300° |
| 2026-04-07 11:09 | 24.94952 | 55.06567 | 5132 ft | 247 kts | 300° |
| 2026-04-07 11:09 | 24.95831 | 55.04963 | 5922 ft | 247 kts | 301° |
| 2026-04-07 11:09 | 24.96729 | 55.03337 | 6671 ft | 249 kts | 301° |
| 2026-04-07 11:10 | 24.97632 | 55.01704 | 7393 ft | 250 kts | 301° |
| 2026-04-07 11:10 | 24.98545 | 55.00054 | 8086 ft | 253 kts | 301° |
| 2026-04-07 11:10 | 24.99470 | 54.98379 | 8813 ft | 254 kts | 301° |
| 2026-04-07 11:10 | 25.00382 | 54.96727 | 9535 ft | 255 kts | 301° |
| 2026-04-07 11:11 | 25.01308 | 54.95047 | 10218 ft | 257 kts | 300° |
| 2026-04-07 11:11 | 25.02265 | 54.93312 | 10538 ft | 275 kts | 300° |
| 2026-04-07 11:11 | 25.03294 | 54.91438 | 10704 ft | 295 kts | 300° |
| 2026-04-07 11:11 | 25.04396 | 54.89433 | 10881 ft | 315 kts | 300° |
| 2026-04-07 11:12 | 25.05565 | 54.87309 | 11150 ft | 331 kts | 300° |
| 2026-04-07 11:12 | 25.06776 | 54.85113 | 11689 ft | 338 kts | 300° |
| 2026-04-07 11:12 | 25.08002 | 54.82888 | 12417 ft | 340 kts | 299° |
| 2026-04-07 11:12 | 25.09317 | 54.80719 | 13052 ft | 342 kts | 309° |
| 2026-04-07 11:13 | 25.11195 | 54.79014 | 13528 ft | 357 kts | 323° |
| 2026-04-07 11:13 | 25.13473 | 54.77815 | 14121 ft | 370 kts | 336° |
| 2026-04-07 11:13 | 25.16028 | 54.77203 | 14736 ft | 380 kts | 343° |
| 2026-04-07 11:13 | 25.18631 | 54.76697 | 15363 ft | 382 kts | 342° |
| 2026-04-07 11:14 | 25.21258 | 54.76150 | 15906 ft | 386 kts | 342° |
| 2026-04-07 11:14 | 25.23908 | 54.75564 | 16486 ft | 389 kts | 341° |
| 2026-04-07 11:14 | 25.26572 | 54.74966 | 17051 ft | 393 kts | 341° |
| 2026-04-07 11:14 | 25.29265 | 54.74359 | 17616 ft | 396 kts | 341° |
| 2026-04-07 11:15 | 25.31952 | 54.73753 | 18143 ft | 400 kts | 341° |
| 2026-04-07 11:15 | 25.34702 | 54.73132 | 18661 ft | 403 kts | 341° |
| 2026-04-07 11:15 | 25.37302 | 54.72160 | 19018 ft | 393 kts | 324° |
| 2026-04-07 11:15 | 25.39434 | 54.70324 | 19477 ft | 386 kts | 309° |
| 2026-04-07 11:16 | 25.41099 | 54.68025 | 20060 ft | 382 kts | 300° |
| 2026-04-07 11:16 | 25.42250 | 54.65392 | 20604 ft | 380 kts | 287° |
| 2026-04-07 11:16 | 25.42996 | 54.62586 | 21104 ft | 382 kts | 285° |
| 2026-04-07 11:17 | 25.43911 | 54.59172 | 21675 ft | 385 kts | 286° |
| 2026-04-07 11:17 | 25.44727 | 54.56345 | 22152 ft | 387 kts | 287° |
| 2026-04-07 11:17 | 25.45570 | 54.53495 | 22597 ft | 390 kts | 287° |
| 2026-04-07 11:18 | 25.46419 | 54.50648 | 23055 ft | 391 kts | 287° |
| 2026-04-07 11:18 | 25.46986 | 54.48742 | 23350 ft | 393 kts | 287° |
| 2026-04-07 11:18 | 25.47842 | 54.45860 | 23791 ft | 394 kts | 287° |
| 2026-04-07 11:18 | 25.48698 | 54.42967 | 24231 ft | 396 kts | 287° |
| 2026-04-07 11:19 | 25.49553 | 54.40064 | 24607 ft | 398 kts | 287° |
| 2026-04-07 11:19 | 25.50417 | 54.37132 | 24949 ft | 401 kts | 287° |
| 2026-04-07 11:19 | 25.51285 | 54.34186 | 25285 ft | 404 kts | 286° |
| 2026-04-07 11:19 | 25.52159 | 54.31217 | 25646 ft | 406 kts | 287° |
| 2026-04-07 11:20 | 25.53033 | 54.28243 | 26014 ft | 408 kts | 286° |
| 2026-04-07 11:20 | 25.53912 | 54.25249 | 26369 ft | 409 kts | 286° |
| 2026-04-07 11:20 | 25.54796 | 54.22238 | 26675 ft | 412 kts | 286° |
| 2026-04-07 11:20 | 25.55684 | 54.19215 | 27022 ft | 413 kts | 286° |
| 2026-04-07 11:21 | 25.56572 | 54.16183 | 27433 ft | 413 kts | 286° |
| 2026-04-07 11:21 | 25.57458 | 54.13163 | 27915 ft | 411 kts | 286° |
| 2026-04-07 11:21 | 25.58336 | 54.10167 | 28395 ft | 409 kts | 286° |
| 2026-04-07 11:21 | 25.59213 | 54.07172 | 28872 ft | 407 kts | 286° |
| 2026-04-07 11:22 | 25.60075 | 54.04195 | 29335 ft | 405 kts | 285° |
| 2026-04-07 11:22 | 25.60925 | 54.01216 | 29757 ft | 405 kts | 285° |
| 2026-04-07 11:22 | 25.61757 | 53.98289 | 30179 ft | 403 kts | 285° |
| 2026-04-07 11:22 | 25.62602 | 53.95318 | 30573 ft | 403 kts | 285° |
| 2026-04-07 11:23 | 25.63433 | 53.92396 | 31290 ft | 393 kts | 285° |
| 2026-04-07 11:23 | 25.64119 | 53.89986 | 31798 ft | 389 kts | 285° |
| 2026-04-07 11:23 | 25.64934 | 53.87117 | 31972 ft | 391 kts | 285° |
| 2026-04-07 11:24 | 25.66564 | 53.81375 | 31955 ft | 388 kts | 285° |
| 2026-04-07 11:24 | 25.68171 | 53.75706 | 31965 ft | 388 kts | 285° |
| 2026-04-07 11:25 | 25.70591 | 53.67129 | 31971 ft | 389 kts | 285° |
| 2026-04-07 11:25 | 25.72203 | 53.61393 | 31973 ft | 390 kts | 285° |
| 2026-04-07 11:26 | 25.73814 | 53.55651 | 31972 ft | 390 kts | 285° |
| 2026-04-07 11:26 | 25.75427 | 53.49895 | 31977 ft | 390 kts | 285° |
| 2026-04-07 11:27 | 25.77040 | 53.44149 | 31979 ft | 390 kts | 285° |
| 2026-04-07 11:27 | 25.78652 | 53.38403 | 31985 ft | 390 kts | 285° |
| 2026-04-07 11:28 | 25.80262 | 53.32646 | 31979 ft | 390 kts | 285° |
| 2026-04-07 11:28 | 25.81871 | 53.26894 | 31995 ft | 391 kts | 285° |
| 2026-04-07 11:29 | 25.83471 | 53.21154 | 31991 ft | 392 kts | 285° |
| 2026-04-07 11:29 | 25.85425 | 53.15456 | 31989 ft | 395 kts | 291° |
| 2026-04-07 11:30 | 25.87697 | 53.09945 | 31989 ft | 395 kts | 291° |
| 2026-04-07 11:30 | 25.89969 | 53.04384 | 32001 ft | 396 kts | 291° |
| 2026-04-07 11:31 | 25.92238 | 52.98804 | 32000 ft | 397 kts | 291° |
| 2026-04-07 11:31 | 25.94506 | 52.93210 | 32000 ft | 397 kts | 291° |
| 2026-04-07 11:32 | 25.96774 | 52.87615 | 32001 ft | 397 kts | 291° |
| 2026-04-07 11:32 | 25.99034 | 52.82026 | 32001 ft | 396 kts | 290° |
| 2026-04-07 11:33 | 26.01288 | 52.76450 | 32013 ft | 395 kts | 290° |
| 2026-04-07 11:33 | 26.03618 | 52.70967 | 32007 ft | 394 kts | 292° |
| 2026-04-07 11:34 | 26.06108 | 52.65547 | 32004 ft | 392 kts | 292° |
| 2026-04-07 11:34 | 26.08556 | 52.60152 | 32003 ft | 390 kts | 292° |
| 2026-04-07 11:35 | 26.10971 | 52.54778 | 32005 ft | 388 kts | 292° |
| 2026-04-07 11:35 | 26.13392 | 52.49398 | 32012 ft | 389 kts | 292° |
| 2026-04-07 11:36 | 26.15829 | 52.43997 | 32015 ft | 391 kts | 292° |
| 2026-04-07 11:36 | 26.18272 | 52.38571 | 32023 ft | 393 kts | 292° |
| 2026-04-07 11:37 | 26.20729 | 52.33107 | 32022 ft | 395 kts | 292° |
| 2026-04-07 11:37 | 26.23172 | 52.27609 | 32020 ft | 396 kts | 291° |
| 2026-04-07 11:38 | 26.25559 | 52.22075 | 32019 ft | 396 kts | 291° |
| 2026-04-07 11:38 | 26.27947 | 52.16538 | 32018 ft | 396 kts | 291° |
| 2026-04-07 11:39 | 26.30317 | 52.11053 | 32017 ft | 395 kts | 291° |
| 2026-04-07 11:39 | 26.32699 | 52.05538 | 32017 ft | 394 kts | 291° |
| 2026-04-07 11:40 | 26.35078 | 52.00035 | 32018 ft | 393 kts | 291° |
| 2026-04-07 11:40 | 26.37429 | 51.94540 | 32019 ft | 392 kts | 290° |
| 2026-04-07 11:41 | 26.39378 | 51.88871 | 32020 ft | 390 kts | 287° |
| 2026-04-07 11:41 | 26.41277 | 51.83187 | 32019 ft | 390 kts | 287° |
| 2026-04-07 11:42 | 26.43179 | 51.77522 | 32019 ft | 391 kts | 287° |
| 2026-04-07 11:42 | 26.45083 | 51.71841 | 32036 ft | 390 kts | 287° |
| 2026-04-07 11:43 | 26.46982 | 51.66166 | 32045 ft | 390 kts | 287° |
| 2026-04-07 11:43 | 26.48873 | 51.60502 | 32048 ft | 389 kts | 287° |
| 2026-04-07 11:44 | 26.50760 | 51.54833 | 32039 ft | 390 kts | 287° |
| 2026-04-07 11:44 | 26.52648 | 51.49152 | 32036 ft | 389 kts | 287° |
| 2026-04-07 11:45 | 26.54516 | 51.43524 | 32037 ft | 389 kts | 287° |
| 2026-04-07 11:45 | 26.56390 | 51.37868 | 32050 ft | 388 kts | 287° |
| 2026-04-07 11:46 | 26.58264 | 51.32205 | 32046 ft | 387 kts | 286° |
| 2026-04-07 11:46 | 26.60130 | 51.26564 | 32045 ft | 387 kts | 286° |
| 2026-04-07 11:47 | 26.62001 | 51.20919 | 32045 ft | 386 kts | 286° |
| 2026-04-07 11:47 | 26.63852 | 51.15323 | 32051 ft | 386 kts | 286° |
| 2026-04-07 11:48 | 26.65713 | 51.09688 | 32047 ft | 386 kts | 286° |
| 2026-04-07 11:48 | 26.67568 | 51.04064 | 32047 ft | 386 kts | 286° |
| 2026-04-07 11:49 | 26.69414 | 50.98416 | 32046 ft | 386 kts | 285° |
| 2026-04-07 11:49 | 26.71223 | 50.92758 | 32049 ft | 386 kts | 285° |
| 2026-04-07 11:50 | 26.73028 | 50.87100 | 32045 ft | 386 kts | 285° |
| 2026-04-07 11:50 | 26.74831 | 50.81449 | 32045 ft | 386 kts | 285° |
| 2026-04-07 11:51 | 26.76627 | 50.75824 | 32046 ft | 386 kts | 285° |
| 2026-04-07 11:51 | 26.78436 | 50.70159 | 32047 ft | 387 kts | 287° |
| 2026-04-07 11:52 | 26.80877 | 50.64744 | 32058 ft | 392 kts | 295° |
| 2026-04-07 11:52 | 26.83997 | 50.59662 | 32039 ft | 400 kts | 302° |
| 2026-04-07 11:53 | 26.87549 | 50.54870 | 32040 ft | 400 kts | 302° |
| 2026-04-07 11:53 | 26.91085 | 50.50046 | 32040 ft | 400 kts | 302° |
| 2026-04-07 11:54 | 26.94840 | 50.45390 | 32040 ft | 404 kts | 306° |
| 2026-04-07 11:54 | 26.98643 | 50.40919 | 32038 ft | 403 kts | 306° |
| 2026-04-07 11:55 | 27.02494 | 50.36350 | 32035 ft | 402 kts | 305° |
| 2026-04-07 11:55 | 27.06321 | 50.31781 | 32042 ft | 401 kts | 305° |
| 2026-04-07 11:56 | 27.10109 | 50.27200 | 32046 ft | 400 kts | 304° |
| 2026-04-07 11:56 | 27.13899 | 50.22618 | 32045 ft | 400 kts | 304° |
| 2026-04-07 11:57 | 27.18007 | 50.18330 | 32044 ft | 410 kts | 314° |
| 2026-04-07 11:57 | 27.22647 | 50.14540 | 32053 ft | 412 kts | 314° |
| 2026-04-07 11:58 | 27.27272 | 50.10744 | 32043 ft | 412 kts | 314° |
| 2026-04-07 11:58 | 27.31899 | 50.06922 | 32041 ft | 412 kts | 314° |
| 2026-04-07 11:59 | 27.36518 | 50.03096 | 32037 ft | 411 kts | 313° |
| 2026-04-07 11:59 | 27.41039 | 49.99164 | 32038 ft | 409 kts | 312° |
| 2026-04-07 12:00 | 27.45478 | 49.95226 | 32038 ft | 409 kts | 311° |
| 2026-04-07 12:00 | 27.49952 | 49.91267 | 32035 ft | 408 kts | 312° |
| 2026-04-07 12:01 | 27.53698 | 49.87964 | 32039 ft | 408 kts | 311° |
| 2026-04-07 12:01 | 27.58166 | 49.84025 | 32035 ft | 408 kts | 311° |
| 2026-04-07 12:02 | 27.62607 | 49.80104 | 32037 ft | 407 kts | 311° |
| 2026-04-07 12:02 | 27.67066 | 49.76163 | 32042 ft | 407 kts | 311° |
| 2026-04-07 12:03 | 27.71526 | 49.72215 | 32049 ft | 407 kts | 311° |
| 2026-04-07 12:03 | 27.75983 | 49.68269 | 32048 ft | 406 kts | 311° |
| 2026-04-07 12:04 | 27.80423 | 49.64326 | 32057 ft | 406 kts | 311° |
| 2026-04-07 12:04 | 27.84856 | 49.60368 | 32056 ft | 406 kts | 311° |
| 2026-04-07 12:05 | 27.89289 | 49.56405 | 32055 ft | 406 kts | 311° |
| 2026-04-07 12:05 | 27.93689 | 49.52470 | 32056 ft | 405 kts | 311° |
| 2026-04-07 12:06 | 27.98109 | 49.48512 | 32057 ft | 406 kts | 311° |
| 2026-04-07 12:06 | 28.02541 | 49.44539 | 32061 ft | 406 kts | 310° |
| 2026-04-07 12:07 | 28.06952 | 49.40538 | 32056 ft | 405 kts | 310° |
| 2026-04-07 12:07 | 28.11335 | 49.36531 | 32057 ft | 405 kts | 310° |
| 2026-04-07 12:08 | 28.15690 | 49.32550 | 32054 ft | 404 kts | 310° |
| 2026-04-07 12:08 | 28.20062 | 49.28552 | 32054 ft | 403 kts | 310° |
| 2026-04-07 12:09 | 28.24420 | 49.24564 | 32054 ft | 401 kts | 310° |
| 2026-04-07 12:09 | 28.28756 | 49.20592 | 32060 ft | 400 kts | 310° |
| 2026-04-07 12:10 | 28.33074 | 49.16632 | 32065 ft | 398 kts | 310° |
| 2026-04-07 12:10 | 28.37382 | 49.12678 | 32064 ft | 398 kts | 309° |
| 2026-04-07 12:11 | 28.41845 | 49.08867 | 32069 ft | 406 kts | 314° |
| 2026-04-07 12:11 | 28.46549 | 49.05284 | 32071 ft | 407 kts | 314° |
| 2026-04-07 12:12 | 28.51273 | 49.01686 | 32069 ft | 408 kts | 314° |
| 2026-04-07 12:12 | 28.55988 | 48.98074 | 32054 ft | 409 kts | 314° |
| 2026-04-07 12:13 | 28.60707 | 48.94451 | 32048 ft | 409 kts | 314° |
| 2026-04-07 12:13 | 28.65388 | 48.90849 | 32050 ft | 408 kts | 314° |
| 2026-04-07 12:14 | 28.70085 | 48.87231 | 32044 ft | 407 kts | 314° |
| 2026-04-07 12:14 | 28.74763 | 48.83624 | 32053 ft | 405 kts | 314° |
| 2026-04-07 12:15 | 28.79430 | 48.80021 | 32056 ft | 404 kts | 313° |
| 2026-04-07 12:15 | 28.84094 | 48.76437 | 32052 ft | 404 kts | 314° |
| 2026-04-07 12:16 | 28.88735 | 48.72888 | 32056 ft | 403 kts | 314° |
| 2026-04-07 12:16 | 28.93395 | 48.69317 | 32058 ft | 403 kts | 313° |
| 2026-04-07 12:17 | 28.98051 | 48.65745 | 32053 ft | 403 kts | 313° |
| 2026-04-07 12:17 | 29.02710 | 48.62163 | 32059 ft | 404 kts | 313° |
| 2026-04-07 12:18 | 29.07368 | 48.58578 | 32058 ft | 404 kts | 313° |
| 2026-04-07 12:18 | 29.12037 | 48.54980 | 32059 ft | 404 kts | 313° |
| 2026-04-07 12:19 | 29.16701 | 48.51384 | 32053 ft | 405 kts | 313° |
| 2026-04-07 12:19 | 29.21347 | 48.47798 | 32056 ft | 404 kts | 313° |
| 2026-04-07 12:20 | 29.26002 | 48.44200 | 32050 ft | 403 kts | 313° |
| 2026-04-07 12:20 | 29.30653 | 48.40603 | 32048 ft | 402 kts | 313° |
| 2026-04-07 12:21 | 29.35281 | 48.37017 | 32045 ft | 401 kts | 312° |
| 2026-04-07 12:21 | 29.39889 | 48.33442 | 32039 ft | 399 kts | 312° |
| 2026-04-07 12:22 | 29.44532 | 48.29914 | 32037 ft | 404 kts | 315° |
| 2026-04-07 12:22 | 29.49417 | 48.26692 | 32037 ft | 406 kts | 316° |
| 2026-04-07 12:23 | 29.54330 | 48.23490 | 32038 ft | 406 kts | 316° |
| 2026-04-07 12:23 | 29.59257 | 48.20259 | 32043 ft | 407 kts | 316° |
| 2026-04-07 12:24 | 29.64174 | 48.17019 | 32039 ft | 407 kts | 315° |
| 2026-04-07 12:24 | 29.69090 | 48.13774 | 32037 ft | 408 kts | 315° |
| 2026-04-07 12:25 | 29.73988 | 48.10537 | 32036 ft | 408 kts | 315° |
| 2026-04-07 12:25 | 29.78920 | 48.07276 | 32037 ft | 407 kts | 315° |
| 2026-04-07 12:26 | 29.83828 | 48.04027 | 32036 ft | 406 kts | 315° |
| 2026-04-07 12:26 | 29.88725 | 48.00778 | 32033 ft | 406 kts | 315° |
| 2026-04-07 12:27 | 29.93614 | 47.97530 | 32035 ft | 405 kts | 315° |
| 2026-04-07 12:27 | 29.98490 | 47.94283 | 32034 ft | 402 kts | 314° |
| 2026-04-07 12:28 | 30.00729 | 47.92495 | 32026 ft | 390 kts | 308° |
| 2026-04-07 12:28 | 30.02796 | 47.90515 | 32032 ft | 384 kts | 305° |
| 2026-04-07 12:29 | 30.08228 | 47.83890 | 32034 ft | 373 kts | 298° |
| 2026-04-07 12:29 | 30.11589 | 47.79362 | 32029 ft | 373 kts | 298° |
| 2026-04-07 12:30 | 30.14986 | 47.74800 | 32031 ft | 374 kts | 298° |
| 2026-04-07 12:30 | 30.18393 | 47.70240 | 32027 ft | 374 kts | 298° |
| 2026-04-07 12:31 | 30.21790 | 47.65693 | 32026 ft | 374 kts | 298° |
| 2026-04-07 12:31 | 30.25164 | 47.61173 | 32029 ft | 373 kts | 298° |
| 2026-04-07 12:32 | 30.28566 | 47.56609 | 32027 ft | 372 kts | 298° |
| 2026-04-07 12:32 | 30.31942 | 47.52074 | 32030 ft | 371 kts | 298° |
| 2026-04-07 12:33 | 30.35301 | 47.47559 | 32020 ft | 370 kts | 298° |
| 2026-04-07 12:33 | 30.38639 | 47.43062 | 32030 ft | 370 kts | 298° |
| 2026-04-07 12:34 | 30.42006 | 47.38525 | 32029 ft | 371 kts | 298° |
| 2026-04-07 12:34 | 30.45376 | 47.33978 | 32029 ft | 372 kts | 298° |
| 2026-04-07 12:35 | 30.48758 | 47.29408 | 32029 ft | 373 kts | 298° |
| 2026-04-07 12:35 | 30.52116 | 47.24868 | 32030 ft | 373 kts | 297° |
| 2026-04-07 12:36 | 30.55499 | 47.20323 | 32024 ft | 374 kts | 300° |
| 2026-04-07 12:36 | 30.59386 | 47.16143 | 32027 ft | 387 kts | 307° |
| 2026-04-07 12:37 | 30.63586 | 47.12248 | 32026 ft | 386 kts | 307° |
| 2026-04-07 12:37 | 30.67775 | 47.08362 | 32026 ft | 385 kts | 306° |
| 2026-04-07 12:38 | 30.71947 | 47.04469 | 32026 ft | 384 kts | 306° |
| 2026-04-07 12:38 | 30.76115 | 47.00569 | 32028 ft | 384 kts | 306° |
| 2026-04-07 12:39 | 30.80269 | 46.96674 | 32028 ft | 384 kts | 306° |
| 2026-04-07 12:39 | 30.84398 | 46.92801 | 32030 ft | 384 kts | 306° |
| 2026-04-07 12:40 | 30.88561 | 46.88887 | 32028 ft | 384 kts | 306° |
| 2026-04-07 12:40 | 30.92728 | 46.84971 | 32029 ft | 385 kts | 306° |
| 2026-04-07 12:41 | 30.96221 | 46.81685 | 32029 ft | 385 kts | 306° |
| 2026-04-07 12:41 | 31.00394 | 46.77754 | 32026 ft | 385 kts | 306° |
| 2026-04-07 12:42 | 31.04551 | 46.73835 | 32028 ft | 384 kts | 306° |
| 2026-04-07 12:42 | 31.08700 | 46.69916 | 32028 ft | 384 kts | 306° |
| 2026-04-07 12:43 | 31.12852 | 46.65990 | 32027 ft | 383 kts | 306° |
| 2026-04-07 12:43 | 31.16983 | 46.62081 | 32026 ft | 382 kts | 306° |
| 2026-04-07 12:44 | 31.21108 | 46.58171 | 32026 ft | 381 kts | 306° |
| 2026-04-07 12:44 | 31.25223 | 46.54264 | 32028 ft | 381 kts | 306° |
| 2026-04-07 12:45 | 31.29342 | 46.50353 | 32030 ft | 381 kts | 305° |
| 2026-04-07 12:45 | 31.33423 | 46.46469 | 32019 ft | 381 kts | 305° |
| 2026-04-07 12:46 | 31.37560 | 46.42532 | 32019 ft | 380 kts | 305° |
| 2026-04-07 12:46 | 31.41641 | 46.38641 | 32020 ft | 380 kts | 305° |
| 2026-04-07 12:47 | 31.45774 | 46.34697 | 32019 ft | 380 kts | 305° |
| 2026-04-07 12:47 | 31.49912 | 46.30744 | 32018 ft | 379 kts | 305° |
| 2026-04-07 12:48 | 31.54000 | 46.26834 | 32020 ft | 378 kts | 305° |
| 2026-04-07 12:48 | 31.58081 | 46.22927 | 32018 ft | 378 kts | 305° |
| 2026-04-07 12:49 | 31.61744 | 46.19413 | 32019 ft | 377 kts | 305° |
| 2026-04-07 12:49 | 31.65365 | 46.15936 | 32019 ft | 377 kts | 305° |
| 2026-04-07 12:50 | 31.69419 | 46.12041 | 32018 ft | 376 kts | 304° |
| 2026-04-07 12:50 | 31.73469 | 46.08144 | 32014 ft | 376 kts | 304° |
| 2026-04-07 12:51 | 31.77508 | 46.04220 | 32011 ft | 375 kts | 304° |
| 2026-04-07 12:51 | 31.81487 | 46.00270 | 32009 ft | 374 kts | 304° |
| 2026-04-07 12:52 | 31.85436 | 45.96340 | 32009 ft | 374 kts | 304° |
| 2026-04-07 12:52 | 31.89410 | 45.92389 | 32009 ft | 375 kts | 304° |
| 2026-04-07 12:53 | 31.93399 | 45.88421 | 32011 ft | 375 kts | 304° |
| 2026-04-07 12:53 | 31.97387 | 45.84455 | 32009 ft | 375 kts | 304° |
| 2026-04-07 12:54 | 32.01361 | 45.80500 | 32008 ft | 374 kts | 304° |
| 2026-04-07 12:54 | 32.05330 | 45.76539 | 31999 ft | 373 kts | 304° |
| 2026-04-07 12:55 | 32.09293 | 45.72573 | 32002 ft | 375 kts | 304° |
| 2026-04-07 12:55 | 32.13253 | 45.68612 | 32000 ft | 375 kts | 304° |
| 2026-04-07 12:56 | 32.17205 | 45.64647 | 32003 ft | 375 kts | 304° |
| 2026-04-07 12:56 | 32.21196 | 45.60668 | 31998 ft | 375 kts | 304° |
| 2026-04-07 12:57 | 32.25178 | 45.56676 | 32002 ft | 375 kts | 304° |
| 2026-04-07 12:57 | 32.29164 | 45.52667 | 32000 ft | 377 kts | 304° |
| 2026-04-07 12:58 | 32.33161 | 45.48639 | 32004 ft | 378 kts | 304° |
| 2026-04-07 12:58 | 32.37176 | 45.44595 | 32001 ft | 379 kts | 304° |
| 2026-04-07 12:59 | 32.41194 | 45.40544 | 31985 ft | 379 kts | 304° |
| 2026-04-07 12:59 | 32.45211 | 45.36480 | 31991 ft | 380 kts | 304° |
| 2026-04-07 13:00 | 32.49216 | 45.32445 | 31991 ft | 377 kts | 304° |
| 2026-04-07 13:00 | 32.53200 | 45.28409 | 31986 ft | 376 kts | 304° |
| 2026-04-07 13:01 | 32.57416 | 45.24596 | 31999 ft | 390 kts | 310° |
| 2026-04-07 13:01 | 32.61941 | 45.21065 | 31988 ft | 390 kts | 310° |
| 2026-04-07 13:02 | 32.66480 | 45.17469 | 32000 ft | 394 kts | 310° |
| 2026-04-07 13:02 | 32.71037 | 45.13832 | 31999 ft | 399 kts | 310° |
| 2026-04-07 13:03 | 32.75680 | 45.10141 | 31980 ft | 399 kts | 310° |
| 2026-04-07 13:03 | 32.80317 | 45.06459 | 31987 ft | 397 kts | 310° |
| 2026-04-07 13:04 | 32.84857 | 45.02845 | 31982 ft | 394 kts | 310° |
| 2026-04-07 13:04 | 32.89383 | 44.99245 | 31988 ft | 393 kts | 310° |
| 2026-04-07 13:05 | 32.93926 | 44.95616 | 31987 ft | 392 kts | 309° |
| 2026-04-07 13:05 | 32.98445 | 44.91991 | 31985 ft | 391 kts | 310° |
| 2026-04-07 13:06 | 33.02857 | 44.88448 | 31990 ft | 392 kts | 310° |
| 2026-04-07 13:06 | 33.07395 | 44.84815 | 31997 ft | 393 kts | 310° |
| 2026-04-07 13:07 | 33.11918 | 44.81176 | 31998 ft | 396 kts | 310° |
| 2026-04-07 13:07 | 33.16498 | 44.77496 | 31996 ft | 397 kts | 310° |
| 2026-04-07 13:08 | 33.21424 | 44.74147 | 32006 ft | 418 kts | 319° |
| 2026-04-07 13:08 | 33.27008 | 44.71664 | 31989 ft | 441 kts | 328° |
| 2026-04-07 13:09 | 33.32968 | 44.69884 | 31997 ft | 445 kts | 330° |
| 2026-04-07 13:09 | 33.38984 | 44.68179 | 32001 ft | 444 kts | 330° |
| 2026-04-07 13:10 | 33.45031 | 44.66439 | 32001 ft | 443 kts | 330° |
| 2026-04-07 13:10 | 33.51012 | 44.64692 | 32002 ft | 442 kts | 330° |
| 2026-04-07 13:11 | 33.56994 | 44.62932 | 31999 ft | 441 kts | 330° |
| 2026-04-07 13:11 | 33.62932 | 44.61164 | 31999 ft | 438 kts | 329° |
| 2026-04-07 13:12 | 33.68812 | 44.59409 | 32006 ft | 439 kts | 330° |
| 2026-04-07 13:12 | 33.74737 | 44.57643 | 31999 ft | 438 kts | 330° |
| 2026-04-07 13:13 | 33.79723 | 44.56152 | 32138 ft | 444 kts | 330° |
| 2026-04-07 13:13 | 33.82717 | 44.55262 | 32520 ft | 443 kts | 330° |
| 2026-04-07 13:13 | 33.85714 | 44.54375 | 32950 ft | 441 kts | 330° |
| 2026-04-07 13:13 | 33.88687 | 44.53495 | 33312 ft | 440 kts | 330° |
| 2026-04-07 13:14 | 33.91671 | 44.52604 | 33596 ft | 441 kts | 329° |
| 2026-04-07 13:14 | 33.94663 | 44.51709 | 33890 ft | 442 kts | 329° |
| 2026-04-07 13:14 | 33.97657 | 44.50808 | 33929 ft | 447 kts | 329° |
| 2026-04-07 13:15 | 34.03754 | 44.48967 | 33984 ft | 456 kts | 330° |
| 2026-04-07 13:15 | 34.09931 | 44.47120 | 33988 ft | 457 kts | 330° |
| 2026-04-07 13:16 | 34.16109 | 44.45275 | 33989 ft | 458 kts | 330° |
| 2026-04-07 13:16 | 34.22297 | 44.43420 | 33993 ft | 457 kts | 330° |
| 2026-04-07 13:17 | 34.28464 | 44.41568 | 34004 ft | 456 kts | 330° |
| 2026-04-07 13:17 | 34.34619 | 44.39713 | 33995 ft | 455 kts | 330° |
| 2026-04-07 13:18 | 34.40687 | 44.37881 | 33998 ft | 453 kts | 330° |
| 2026-04-07 13:18 | 34.46869 | 44.36012 | 34004 ft | 452 kts | 330° |
| 2026-04-07 13:19 | 34.52958 | 44.34168 | 34004 ft | 451 kts | 330° |
| 2026-04-07 13:19 | 34.59071 | 44.32311 | 34018 ft | 451 kts | 330° |
| 2026-04-07 13:20 | 34.65162 | 44.30456 | 34031 ft | 451 kts | 330° |
| 2026-04-07 13:20 | 34.71229 | 44.28608 | 34038 ft | 453 kts | 331° |
| 2026-04-07 13:21 | 34.77366 | 44.26736 | 34027 ft | 454 kts | 331° |
| 2026-04-07 13:21 | 34.83507 | 44.24862 | 34048 ft | 455 kts | 331° |
| 2026-04-07 13:22 | 34.89575 | 44.23007 | 34032 ft | 456 kts | 331° |
| 2026-04-07 13:22 | 34.95725 | 44.21128 | 34038 ft | 456 kts | 332° |
| 2026-04-07 13:23 | 35.01886 | 44.19240 | 34049 ft | 456 kts | 332° |
| 2026-04-07 13:23 | 35.08014 | 44.17356 | 34045 ft | 455 kts | 332° |
| 2026-04-07 13:24 | 35.14246 | 44.15442 | 34046 ft | 455 kts | 332° |
| 2026-04-07 13:24 | 35.20259 | 44.13590 | 34046 ft | 455 kts | 332° |
| 2026-04-07 13:25 | 35.26394 | 44.11697 | 34045 ft | 455 kts | 333° |
| 2026-04-07 13:25 | 35.32517 | 44.09803 | 34051 ft | 455 kts | 333° |
| 2026-04-07 13:26 | 35.38691 | 44.07892 | 34044 ft | 455 kts | 333° |
| 2026-04-07 13:26 | 35.44807 | 44.05995 | 34050 ft | 456 kts | 333° |
| 2026-04-07 13:27 | 35.50954 | 44.04086 | 34040 ft | 457 kts | 333° |
| 2026-04-07 13:27 | 35.57118 | 44.02171 | 34051 ft | 456 kts | 333° |
| 2026-04-07 13:28 | 35.63287 | 44.00249 | 34048 ft | 457 kts | 333° |
| 2026-04-07 13:28 | 35.69453 | 43.98325 | 34043 ft | 457 kts | 333° |
| 2026-04-07 13:29 | 35.75622 | 43.96399 | 34046 ft | 457 kts | 333° |
| 2026-04-07 13:29 | 35.81797 | 43.94465 | 34047 ft | 457 kts | 333° |
| 2026-04-07 13:30 | 35.87964 | 43.92532 | 34041 ft | 457 kts | 333° |
| 2026-04-07 13:30 | 35.94129 | 43.90597 | 34051 ft | 456 kts | 333° |
| 2026-04-07 13:31 | 36.00290 | 43.88658 | 34048 ft | 456 kts | 333° |
| 2026-04-07 13:31 | 36.06450 | 43.86718 | 34046 ft | 456 kts | 333° |
| 2026-04-07 13:32 | 36.12594 | 43.84779 | 34046 ft | 456 kts | 333° |
| 2026-04-07 13:32 | 36.18711 | 43.82846 | 34042 ft | 456 kts | 333° |
| 2026-04-07 13:33 | 36.24862 | 43.80900 | 34048 ft | 455 kts | 334° |
| 2026-04-07 13:33 | 36.30799 | 43.78511 | 34050 ft | 442 kts | 326° |
| 2026-04-07 13:33 | 36.33628 | 43.77042 | 34055 ft | 441 kts | 325° |
| 2026-04-07 13:34 | 36.39281 | 43.74043 | 34046 ft | 442 kts | 325° |
| 2026-04-07 13:34 | 36.44950 | 43.71064 | 34053 ft | 443 kts | 326° |
| 2026-04-07 13:35 | 36.50659 | 43.68093 | 34049 ft | 444 kts | 326° |
| 2026-04-07 13:35 | 36.56385 | 43.65114 | 34051 ft | 445 kts | 326° |
| 2026-04-07 13:36 | 36.62113 | 43.62133 | 34046 ft | 446 kts | 326° |
| 2026-04-07 13:36 | 36.67842 | 43.59138 | 34045 ft | 447 kts | 327° |
| 2026-04-07 13:37 | 36.73587 | 43.56134 | 34048 ft | 448 kts | 327° |
| 2026-04-07 13:37 | 36.79252 | 43.53069 | 34036 ft | 446 kts | 326° |
| 2026-04-07 13:38 | 36.84903 | 43.49890 | 34050 ft | 446 kts | 326° |
| 2026-04-07 13:38 | 36.90571 | 43.46696 | 34033 ft | 445 kts | 326° |
| 2026-04-07 13:39 | 36.96215 | 43.43526 | 34053 ft | 446 kts | 326° |
| 2026-04-07 13:39 | 37.01890 | 43.40345 | 34065 ft | 446 kts | 327° |
| 2026-04-07 13:40 | 37.07561 | 43.37158 | 34051 ft | 447 kts | 327° |
| 2026-04-07 13:40 | 37.13243 | 43.33962 | 34052 ft | 448 kts | 327° |
| 2026-04-07 13:41 | 37.18940 | 43.30750 | 34045 ft | 449 kts | 327° |
| 2026-04-07 13:41 | 37.24644 | 43.27529 | 34044 ft | 450 kts | 327° |
| 2026-04-07 13:42 | 37.30361 | 43.24293 | 34049 ft | 449 kts | 326° |
| 2026-04-07 13:42 | 37.33015 | 43.22335 | 34050 ft | 436 kts | 314° |
| 2026-04-07 13:42 | 37.35232 | 43.19805 | 34028 ft | 426 kts | 305° |
| 2026-04-07 13:43 | 37.38468 | 43.13836 | 34039 ft | 412 kts | 292° |
| 2026-04-07 13:43 | 37.40693 | 43.08482 | 34048 ft | 413 kts | 292° |
| 2026-04-07 13:44 | 37.43818 | 43.01025 | 34039 ft | 415 kts | 292° |
| 2026-04-07 13:44 | 37.46537 | 42.94608 | 34045 ft | 416 kts | 292° |
| 2026-04-07 13:45 | 37.48805 | 42.89261 | 34040 ft | 417 kts | 292° |
| 2026-04-07 13:45 | 37.51540 | 42.82811 | 34050 ft | 418 kts | 292° |
| 2026-04-07 13:46 | 37.54274 | 42.76347 | 34038 ft | 417 kts | 293° |
| 2026-04-07 13:46 | 37.56998 | 42.69888 | 34037 ft | 418 kts | 293° |
| 2026-04-07 13:47 | 37.59732 | 42.63398 | 34030 ft | 418 kts | 293° |
| 2026-04-07 13:47 | 37.62468 | 42.56905 | 34037 ft | 419 kts | 293° |
| 2026-04-07 13:48 | 37.65203 | 42.50402 | 34051 ft | 420 kts | 293° |
| 2026-04-07 13:48 | 37.67949 | 42.43853 | 34048 ft | 422 kts | 293° |
| 2026-04-07 13:49 | 37.70696 | 42.37291 | 34044 ft | 423 kts | 293° |
| 2026-04-07 13:49 | 37.73426 | 42.30758 | 34037 ft | 424 kts | 294° |
| 2026-04-07 13:50 | 37.76133 | 42.24269 | 34051 ft | 425 kts | 293° |
| 2026-04-07 13:50 | 37.78888 | 42.17643 | 34048 ft | 428 kts | 293° |
| 2026-04-07 13:51 | 37.81652 | 42.10981 | 34033 ft | 427 kts | 294° |
| 2026-04-07 13:51 | 37.84417 | 42.04308 | 34037 ft | 427 kts | 294° |
| 2026-04-07 13:52 | 37.87177 | 41.97635 | 34040 ft | 428 kts | 294° |
| 2026-04-07 13:52 | 37.89964 | 41.90947 | 34031 ft | 430 kts | 296° |
| 2026-04-07 13:53 | 37.93408 | 41.84726 | 34025 ft | 437 kts | 306° |
| 2026-04-07 13:53 | 37.97437 | 41.78971 | 34033 ft | 437 kts | 307° |
| 2026-04-07 13:54 | 38.01480 | 41.73230 | 34021 ft | 436 kts | 307° |
| 2026-04-07 13:54 | 38.05498 | 41.67470 | 34011 ft | 435 kts | 307° |
| 2026-04-07 13:55 | 38.09512 | 41.61688 | 34020 ft | 435 kts | 307° |
| 2026-04-07 13:55 | 38.13511 | 41.55909 | 34023 ft | 435 kts | 307° |
| 2026-04-07 13:56 | 38.17503 | 41.50129 | 34018 ft | 435 kts | 307° |
| 2026-04-07 13:56 | 38.21500 | 41.44332 | 34024 ft | 435 kts | 307° |
| 2026-04-07 13:57 | 38.25485 | 41.38545 | 34020 ft | 435 kts | 307° |
| 2026-04-07 13:57 | 38.29460 | 41.32757 | 34014 ft | 437 kts | 307° |
| 2026-04-07 13:58 | 38.33473 | 41.26909 | 34009 ft | 438 kts | 307° |
| 2026-04-07 13:58 | 38.37479 | 41.21059 | 34009 ft | 439 kts | 307° |
| 2026-04-07 13:59 | 38.41498 | 41.15175 | 34009 ft | 439 kts | 307° |
| 2026-04-07 13:59 | 38.45504 | 41.09304 | 34015 ft | 440 kts | 307° |
| 2026-04-07 14:00 | 38.49468 | 41.03366 | 34010 ft | 439 kts | 306° |
| 2026-04-07 14:00 | 38.53375 | 40.97358 | 34019 ft | 439 kts | 306° |
| 2026-04-07 14:01 | 38.57289 | 40.91348 | 34012 ft | 439 kts | 306° |
| 2026-04-07 14:01 | 38.61225 | 40.85317 | 34017 ft | 439 kts | 306° |
| 2026-04-07 14:02 | 38.65148 | 40.79315 | 34003 ft | 440 kts | 307° |
| 2026-04-07 14:02 | 38.69118 | 40.73333 | 34018 ft | 439 kts | 307° |
| 2026-04-07 14:03 | 38.73074 | 40.67367 | 34014 ft | 440 kts | 307° |
| 2026-04-07 14:03 | 38.77029 | 40.61379 | 34005 ft | 440 kts | 307° |
| 2026-04-07 14:04 | 38.80991 | 40.55364 | 34001 ft | 440 kts | 307° |
| 2026-04-07 14:04 | 38.84938 | 40.49358 | 33999 ft | 440 kts | 307° |
| 2026-04-07 14:05 | 38.86247 | 40.47363 | 33996 ft | 440 kts | 307° |
| 2026-04-07 14:05 | 38.86525 | 40.46940 | 33995 ft | 440 kts | 307° |
| 2026-04-07 14:06 | 38.88976 | 40.43201 | 34002 ft | 439 kts | 307° |
| 2026-04-07 14:06 | 38.92878 | 40.37241 | 33995 ft | 439 kts | 307° |
| 2026-04-07 14:07 | 38.96813 | 40.31221 | 33993 ft | 439 kts | 307° |
| 2026-04-07 14:07 | 39.00737 | 40.25206 | 33991 ft | 440 kts | 307° |
| 2026-04-07 14:08 | 39.04661 | 40.19178 | 33989 ft | 440 kts | 307° |
| 2026-04-07 14:08 | 39.08594 | 40.13124 | 33987 ft | 441 kts | 307° |
| 2026-04-07 14:09 | 39.12528 | 40.07059 | 33995 ft | 441 kts | 307° |
| 2026-04-07 14:09 | 39.16466 | 40.00975 | 33994 ft | 442 kts | 307° |
| 2026-04-07 14:10 | 39.20398 | 39.94891 | 33991 ft | 441 kts | 308° |
| 2026-04-07 14:10 | 39.24328 | 39.88792 | 33986 ft | 441 kts | 308° |
| 2026-04-07 14:11 | 39.28236 | 39.82715 | 33980 ft | 440 kts | 308° |
| 2026-04-07 14:11 | 39.31474 | 39.77666 | 33985 ft | 439 kts | 308° |
| 2026-04-07 14:12 | 39.36134 | 39.70392 | 33974 ft | 439 kts | 308° |
| 2026-04-07 14:12 | 39.40019 | 39.64314 | 33972 ft | 438 kts | 308° |
| 2026-04-07 14:13 | 39.43899 | 39.58231 | 33974 ft | 438 kts | 308° |
| 2026-04-07 14:13 | 39.47145 | 39.53134 | 33972 ft | 438 kts | 308° |
| 2026-04-07 14:14 | 39.51024 | 39.47035 | 33973 ft | 438 kts | 308° |
| 2026-04-07 14:14 | 39.54897 | 39.40849 | 33970 ft | 438 kts | 307° |
| 2026-04-07 14:15 | 39.58706 | 39.34690 | 33973 ft | 438 kts | 307° |
| 2026-04-07 14:15 | 39.62518 | 39.28530 | 33978 ft | 438 kts | 307° |
| 2026-04-07 14:16 | 39.66332 | 39.22364 | 33976 ft | 438 kts | 307° |
| 2026-04-07 14:16 | 39.70137 | 39.16200 | 33968 ft | 437 kts | 308° |
| 2026-04-07 14:17 | 39.73939 | 39.10045 | 33971 ft | 437 kts | 308° |
| 2026-04-07 14:17 | 39.77780 | 39.03928 | 33969 ft | 437 kts | 308° |
| 2026-04-07 14:18 | 39.81629 | 38.97807 | 33964 ft | 436 kts | 308° |
| 2026-04-07 14:18 | 39.85464 | 38.91684 | 33970 ft | 435 kts | 308° |
| 2026-04-07 14:19 | 39.89279 | 38.85572 | 33966 ft | 434 kts | 308° |
| 2026-04-07 14:19 | 39.93084 | 38.79464 | 33968 ft | 434 kts | 309° |
| 2026-04-07 14:20 | 39.96861 | 38.73387 | 33970 ft | 433 kts | 309° |
| 2026-04-07 14:20 | 40.00648 | 38.67279 | 33969 ft | 432 kts | 309° |
| 2026-04-07 14:21 | 40.04449 | 38.61142 | 33956 ft | 431 kts | 309° |
| 2026-04-07 14:21 | 40.08186 | 38.55097 | 33960 ft | 430 kts | 309° |
| 2026-04-07 14:22 | 40.11924 | 38.49035 | 33958 ft | 428 kts | 309° |
| 2026-04-07 14:22 | 40.15650 | 38.42979 | 33966 ft | 427 kts | 309° |
| 2026-04-07 14:23 | 40.19370 | 38.36925 | 33959 ft | 426 kts | 309° |
| 2026-04-07 14:23 | 40.23087 | 38.30864 | 33962 ft | 426 kts | 309° |
| 2026-04-07 14:24 | 40.26798 | 38.24799 | 33969 ft | 427 kts | 309° |
| 2026-04-07 14:24 | 40.30505 | 38.18714 | 33972 ft | 428 kts | 307° |
| 2026-04-07 14:25 | 40.33617 | 38.12073 | 33974 ft | 429 kts | 297° |
| 2026-04-07 14:25 | 40.35908 | 38.04823 | 33981 ft | 431 kts | 292° |
| 2026-04-07 14:26 | 40.38085 | 37.97452 | 33987 ft | 431 kts | 292° |
| 2026-04-07 14:26 | 40.40260 | 37.90154 | 33978 ft | 431 kts | 293° |
| 2026-04-07 14:27 | 40.42451 | 37.82837 | 33981 ft | 431 kts | 293° |
| 2026-04-07 14:27 | 40.44633 | 37.75529 | 33982 ft | 429 kts | 292° |
| 2026-04-07 14:28 | 40.46808 | 37.68238 | 33973 ft | 428 kts | 292° |
| 2026-04-07 14:28 | 40.48969 | 37.60964 | 33976 ft | 427 kts | 292° |
| 2026-04-07 14:29 | 40.51118 | 37.53712 | 33978 ft | 425 kts | 292° |
| 2026-04-07 14:29 | 40.53257 | 37.46477 | 33982 ft | 424 kts | 292° |
| 2026-04-07 14:30 | 40.55387 | 37.39252 | 33971 ft | 424 kts | 292° |
| 2026-04-07 14:30 | 40.57511 | 37.32026 | 33948 ft | 423 kts | 292° |
| 2026-04-07 14:31 | 40.59630 | 37.24796 | 33938 ft | 423 kts | 292° |
| 2026-04-07 14:31 | 40.61738 | 37.17584 | 33952 ft | 422 kts | 292° |
| 2026-04-07 14:32 | 40.63840 | 37.10374 | 33939 ft | 421 kts | 291° |
| 2026-04-07 14:32 | 40.65933 | 37.03173 | 33955 ft | 421 kts | 291° |
| 2026-04-07 14:33 | 40.68023 | 36.95965 | 33941 ft | 420 kts | 291° |
| 2026-04-07 14:33 | 40.70102 | 36.88775 | 33955 ft | 419 kts | 291° |
| 2026-04-07 14:34 | 40.72169 | 36.81604 | 33953 ft | 419 kts | 291° |
| 2026-04-07 14:34 | 40.74224 | 36.74457 | 33961 ft | 418 kts | 291° |
| 2026-04-07 14:35 | 40.76278 | 36.67294 | 33953 ft | 418 kts | 291° |
| 2026-04-07 14:35 | 40.78333 | 36.60118 | 33944 ft | 417 kts | 291° |
| 2026-04-07 14:36 | 40.80378 | 36.52948 | 33968 ft | 417 kts | 291° |
| 2026-04-07 14:36 | 40.82416 | 36.45780 | 33958 ft | 417 kts | 291° |
| 2026-04-07 14:37 | 40.84449 | 36.38608 | 33956 ft | 417 kts | 291° |
| 2026-04-07 14:37 | 40.86481 | 36.31425 | 33964 ft | 417 kts | 291° |
| 2026-04-07 14:38 | 40.88507 | 36.24241 | 33960 ft | 417 kts | 291° |
| 2026-04-07 14:38 | 40.90527 | 36.17059 | 33961 ft | 416 kts | 291° |
| 2026-04-07 14:39 | 40.93545 | 36.06295 | 33934 ft | 416 kts | 290° |
| 2026-04-07 14:40 | 40.95549 | 35.99118 | 33936 ft | 414 kts | 290° |
| 2026-04-07 14:40 | 40.97533 | 35.91998 | 33932 ft | 413 kts | 290° |
| 2026-04-07 14:41 | 40.99512 | 35.84874 | 33917 ft | 412 kts | 290° |
| 2026-04-07 14:41 | 41.01481 | 35.77766 | 33907 ft | 410 kts | 290° |
| 2026-04-07 14:42 | 41.03207 | 35.71523 | 33903 ft | 409 kts | 290° |
| 2026-04-07 14:42 | 41.05153 | 35.64469 | 33907 ft | 408 kts | 290° |
| 2026-04-07 14:43 | 41.07093 | 35.57408 | 33895 ft | 407 kts | 290° |
| 2026-04-07 14:43 | 41.09024 | 35.50366 | 33898 ft | 407 kts | 290° |
| 2026-04-07 14:44 | 41.10952 | 35.43319 | 33907 ft | 407 kts | 290° |
| 2026-04-07 14:44 | 41.12878 | 35.36253 | 33917 ft | 407 kts | 290° |
| 2026-04-07 14:45 | 41.14802 | 35.29175 | 33916 ft | 408 kts | 290° |
| 2026-04-07 14:45 | 41.16608 | 35.22512 | 33930 ft | 407 kts | 290° |
| 2026-04-07 14:46 | 41.18524 | 35.15424 | 33936 ft | 407 kts | 290° |
| 2026-04-07 14:46 | 41.20108 | 35.09552 | 33932 ft | 407 kts | 290° |
| 2026-04-07 14:47 | 41.22320 | 35.01327 | 33951 ft | 407 kts | 290° |
| 2026-04-07 14:47 | 41.23909 | 34.95400 | 33959 ft | 407 kts | 290° |
| 2026-04-07 14:48 | 41.25803 | 34.88321 | 33972 ft | 406 kts | 290° |
| 2026-04-07 14:48 | 41.27689 | 34.81252 | 33983 ft | 405 kts | 290° |
| 2026-04-07 14:49 | 41.29572 | 34.74188 | 33983 ft | 405 kts | 290° |
| 2026-04-07 14:49 | 41.31448 | 34.67131 | 33990 ft | 404 kts | 290° |
| 2026-04-07 14:50 | 41.32270 | 34.64032 | 33997 ft | 403 kts | 290° |
| 2026-04-07 14:50 | 41.34101 | 34.57109 | 33998 ft | 403 kts | 289° |
| 2026-04-07 14:51 | 41.35941 | 34.50135 | 34015 ft | 402 kts | 289° |
| 2026-04-07 14:51 | 41.37799 | 34.43072 | 34010 ft | 401 kts | 289° |
| 2026-04-07 14:52 | 41.39636 | 34.36072 | 34021 ft | 400 kts | 289° |
| 2026-04-07 14:52 | 41.41463 | 34.29062 | 34013 ft | 399 kts | 289° |
| 2026-04-07 14:53 | 41.43271 | 34.22066 | 34018 ft | 399 kts | 289° |
| 2026-04-07 14:53 | 41.45063 | 34.15121 | 34017 ft | 399 kts | 289° |
| 2026-04-07 14:54 | 41.46866 | 34.08126 | 34024 ft | 398 kts | 289° |
| 2026-04-07 14:54 | 41.48664 | 34.01153 | 34013 ft | 397 kts | 289° |
| 2026-04-07 14:55 | 41.50453 | 33.94186 | 34020 ft | 396 kts | 289° |
| 2026-04-07 14:55 | 41.52234 | 33.87228 | 34015 ft | 395 kts | 289° |
| 2026-04-07 14:56 | 41.54005 | 33.80291 | 34026 ft | 395 kts | 289° |
| 2026-04-07 14:56 | 41.55775 | 33.73338 | 34018 ft | 395 kts | 289° |
| 2026-04-07 14:57 | 41.57538 | 33.66391 | 34024 ft | 395 kts | 289° |
| 2026-04-07 14:57 | 41.59164 | 33.59971 | 34017 ft | 395 kts | 289° |
| 2026-04-07 14:58 | 41.60935 | 33.52966 | 34024 ft | 396 kts | 289° |
| 2026-04-07 14:58 | 41.62678 | 33.46045 | 34031 ft | 397 kts | 289° |
| 2026-04-07 14:59 | 41.64436 | 33.39033 | 34028 ft | 397 kts | 289° |
| 2026-04-07 14:59 | 41.66190 | 33.32011 | 34028 ft | 398 kts | 289° |
| 2026-04-07 15:00 | 41.67943 | 33.24980 | 34046 ft | 399 kts | 289° |
| 2026-04-07 15:00 | 41.69064 | 33.20473 | 34023 ft | 399 kts | 289° |
| 2026-04-07 15:01 | 41.70578 | 33.14371 | 34044 ft | 398 kts | 289° |
| 2026-04-07 15:01 | 41.72324 | 33.07320 | 34043 ft | 399 kts | 289° |
| 2026-04-07 15:02 | 41.74063 | 33.00269 | 34055 ft | 399 kts | 289° |
| 2026-04-07 15:02 | 41.75796 | 32.93231 | 34060 ft | 399 kts | 289° |
| 2026-04-07 15:03 | 41.77531 | 32.86156 | 34055 ft | 399 kts | 290° |
| 2026-04-07 15:03 | 41.79251 | 32.79132 | 34067 ft | 395 kts | 290° |
| 2026-04-07 15:04 | 41.80946 | 32.72174 | 34062 ft | 391 kts | 290° |
| 2026-04-07 15:04 | 41.82611 | 32.65319 | 34062 ft | 387 kts | 290° |
| 2026-04-07 15:05 | 41.84107 | 32.59144 | 34067 ft | 385 kts | 290° |
| 2026-04-07 15:05 | 41.85769 | 32.52264 | 34072 ft | 383 kts | 290° |
| 2026-04-07 15:06 | 41.87408 | 32.45456 | 34081 ft | 384 kts | 290° |
| 2026-04-07 15:06 | 41.89040 | 32.38615 | 34096 ft | 386 kts | 290° |
| 2026-04-07 15:07 | 41.90689 | 32.31725 | 34087 ft | 388 kts | 291° |
| 2026-04-07 15:07 | 41.92355 | 32.24812 | 34086 ft | 389 kts | 291° |
| 2026-04-07 15:08 | 41.94001 | 32.17918 | 34086 ft | 390 kts | 290° |
| 2026-04-07 15:08 | 41.95641 | 32.10987 | 34093 ft | 388 kts | 290° |
| 2026-04-07 15:09 | 41.97271 | 32.04087 | 34093 ft | 387 kts | 290° |
| 2026-04-07 15:09 | 41.98892 | 31.97208 | 34086 ft | 385 kts | 290° |
| 2026-04-07 15:10 | 42.00503 | 31.90352 | 34091 ft | 384 kts | 290° |
| 2026-04-07 15:10 | 42.02109 | 31.83505 | 34095 ft | 383 kts | 290° |
| 2026-04-07 15:11 | 42.03710 | 31.76663 | 34095 ft | 383 kts | 290° |
| 2026-04-07 15:11 | 42.05302 | 31.69843 | 34095 ft | 385 kts | 290° |
| 2026-04-07 15:12 | 42.06903 | 31.62967 | 34097 ft | 385 kts | 290° |
| 2026-04-07 15:12 | 42.08500 | 31.56081 | 34096 ft | 386 kts | 290° |
| 2026-04-07 15:13 | 42.10101 | 31.49153 | 34095 ft | 386 kts | 290° |
| 2026-04-07 15:13 | 42.11691 | 31.42261 | 34096 ft | 386 kts | 290° |
| 2026-04-07 15:14 | 42.13275 | 31.35361 | 34089 ft | 385 kts | 290° |
| 2026-04-07 15:14 | 42.14856 | 31.28463 | 34090 ft | 385 kts | 290° |
| 2026-04-07 15:15 | 42.16426 | 31.21582 | 34090 ft | 384 kts | 290° |
| 2026-04-07 15:15 | 42.17991 | 31.14699 | 34081 ft | 383 kts | 290° |
| 2026-04-07 15:16 | 42.18998 | 31.10265 | 34086 ft | 383 kts | 290° |
| 2026-04-07 15:16 | 42.20303 | 31.04507 | 34082 ft | 382 kts | 290° |
| 2026-04-07 15:17 | 42.21851 | 30.97658 | 34086 ft | 382 kts | 290° |
| 2026-04-07 15:17 | 42.23394 | 30.90802 | 34083 ft | 381 kts | 290° |
| 2026-04-07 15:18 | 42.24924 | 30.83979 | 34078 ft | 381 kts | 291° |
| 2026-04-07 15:18 | 42.26457 | 30.77128 | 34084 ft | 381 kts | 290° |
| 2026-04-07 15:19 | 42.27997 | 30.70225 | 34077 ft | 381 kts | 291° |
| 2026-04-07 15:19 | 42.29512 | 30.63415 | 34071 ft | 381 kts | 291° |
| 2026-04-07 15:20 | 42.31033 | 30.56548 | 34075 ft | 381 kts | 291° |
| 2026-04-07 15:20 | 42.32581 | 30.49536 | 34075 ft | 382 kts | 291° |
| 2026-04-07 15:21 | 42.34090 | 30.42684 | 34077 ft | 382 kts | 291° |
| 2026-04-07 15:21 | 42.35599 | 30.35810 | 34077 ft | 382 kts | 291° |
| 2026-04-07 15:22 | 42.37111 | 30.28903 | 34074 ft | 382 kts | 291° |
| 2026-04-07 15:22 | 42.38354 | 30.23200 | 34066 ft | 381 kts | 291° |
| 2026-04-07 15:23 | 42.39871 | 30.16223 | 34063 ft | 381 kts | 291° |
| 2026-04-07 15:23 | 42.41363 | 30.09340 | 34063 ft | 381 kts | 291° |
| 2026-04-07 15:24 | 42.42841 | 30.02503 | 34062 ft | 380 kts | 291° |
| 2026-04-07 15:24 | 42.44326 | 29.95611 | 34047 ft | 380 kts | 291° |
| 2026-04-07 15:25 | 42.46092 | 29.88895 | 34056 ft | 375 kts | 299° |
| 2026-04-07 15:25 | 42.48532 | 29.82684 | 34033 ft | 373 kts | 305° |
| 2026-04-07 15:26 | 42.51511 | 29.76998 | 34047 ft | 372 kts | 308° |
| 2026-04-07 15:26 | 42.54596 | 29.71335 | 34048 ft | 372 kts | 308° |
| 2026-04-07 15:27 | 42.57669 | 29.65665 | 34047 ft | 373 kts | 308° |
| 2026-04-07 15:27 | 42.60727 | 29.59988 | 34047 ft | 373 kts | 308° |
| 2026-04-07 15:28 | 42.63788 | 29.54282 | 34047 ft | 373 kts | 308° |
| 2026-04-07 15:28 | 42.66843 | 29.48570 | 34047 ft | 373 kts | 307° |
| 2026-04-07 15:29 | 42.69893 | 29.42853 | 34047 ft | 373 kts | 307° |
| 2026-04-07 15:29 | 42.72944 | 29.37125 | 34047 ft | 373 kts | 307° |
| 2026-04-07 15:30 | 42.75990 | 29.31398 | 34047 ft | 373 kts | 307° |
| 2026-04-07 15:30 | 42.79007 | 29.25713 | 34046 ft | 372 kts | 307° |
| 2026-04-07 15:31 | 42.82035 | 29.19995 | 34052 ft | 372 kts | 307° |
| 2026-04-07 15:31 | 42.85060 | 29.14273 | 34046 ft | 372 kts | 307° |
| 2026-04-07 15:32 | 42.88093 | 29.08524 | 34047 ft | 372 kts | 307° |
| 2026-04-07 15:32 | 42.91121 | 29.02776 | 34049 ft | 371 kts | 307° |
| 2026-04-07 15:33 | 42.94118 | 28.97073 | 34046 ft | 372 kts | 307° |
| 2026-04-07 15:33 | 42.97156 | 28.91283 | 34046 ft | 372 kts | 307° |
| 2026-04-07 15:34 | 43.00154 | 28.85559 | 34045 ft | 372 kts | 307° |
| 2026-04-07 15:34 | 43.03179 | 28.79766 | 34045 ft | 372 kts | 307° |
| 2026-04-07 15:35 | 43.06186 | 28.74001 | 34048 ft | 372 kts | 307° |
| 2026-04-07 15:35 | 43.09189 | 28.68232 | 34048 ft | 372 kts | 307° |
| 2026-04-07 15:36 | 43.12190 | 28.62457 | 34046 ft | 372 kts | 307° |
| 2026-04-07 15:36 | 43.15185 | 28.56680 | 34047 ft | 371 kts | 307° |
| 2026-04-07 15:37 | 43.18176 | 28.50901 | 34046 ft | 371 kts | 307° |
| 2026-04-07 15:37 | 43.21140 | 28.45164 | 34050 ft | 370 kts | 307° |
| 2026-04-07 15:38 | 43.24112 | 28.39398 | 34048 ft | 370 kts | 307° |
| 2026-04-07 15:38 | 43.27078 | 28.33632 | 34047 ft | 369 kts | 307° |
| 2026-04-07 15:39 | 43.30023 | 28.27896 | 34050 ft | 368 kts | 307° |
| 2026-04-07 15:39 | 43.32994 | 28.22099 | 34036 ft | 367 kts | 307° |
| 2026-04-07 15:40 | 43.35909 | 28.16399 | 34049 ft | 367 kts | 307° |
| 2026-04-07 15:40 | 43.38878 | 28.10581 | 34036 ft | 366 kts | 307° |
| 2026-04-07 15:41 | 43.41828 | 28.04792 | 34050 ft | 366 kts | 307° |
| 2026-04-07 15:41 | 43.44746 | 27.99056 | 34053 ft | 366 kts | 307° |
| 2026-04-07 15:42 | 43.47659 | 27.93320 | 34044 ft | 366 kts | 307° |
| 2026-04-07 15:42 | 43.52029 | 27.84688 | 34045 ft | 366 kts | 307° |
| 2026-04-07 15:43 | 43.54919 | 27.78962 | 34048 ft | 366 kts | 307° |
| 2026-04-07 15:43 | 43.57862 | 27.73125 | 34046 ft | 366 kts | 307° |
| 2026-04-07 15:44 | 43.60746 | 27.67392 | 34040 ft | 366 kts | 307° |
| 2026-04-07 15:44 | 43.63647 | 27.61614 | 34029 ft | 366 kts | 307° |
| 2026-04-07 15:45 | 43.66553 | 27.55813 | 34030 ft | 366 kts | 307° |
| 2026-04-07 15:45 | 43.69436 | 27.50049 | 34046 ft | 366 kts | 307° |
| 2026-04-07 15:46 | 43.72333 | 27.44244 | 34046 ft | 366 kts | 307° |
| 2026-04-07 15:46 | 43.75214 | 27.38460 | 34035 ft | 367 kts | 307° |
| 2026-04-07 15:47 | 43.78108 | 27.32640 | 34024 ft | 367 kts | 307° |
| 2026-04-07 15:47 | 43.80517 | 27.27785 | 34021 ft | 367 kts | 307° |
| 2026-04-07 15:48 | 43.83412 | 27.21940 | 34021 ft | 369 kts | 307° |
| 2026-04-07 15:48 | 43.86317 | 27.16063 | 34035 ft | 369 kts | 307° |
| 2026-04-07 15:49 | 43.89223 | 27.10170 | 34032 ft | 370 kts | 307° |
| 2026-04-07 15:49 | 43.92112 | 27.04305 | 34021 ft | 371 kts | 307° |
| 2026-04-07 15:50 | 43.95020 | 26.98384 | 34021 ft | 371 kts | 307° |
| 2026-04-07 15:50 | 43.97927 | 26.92457 | 34021 ft | 372 kts | 307° |
| 2026-04-07 15:51 | 44.00837 | 26.86512 | 34016 ft | 372 kts | 307° |
| 2026-04-07 15:51 | 44.03736 | 26.80575 | 34017 ft | 370 kts | 306° |
| 2026-04-07 15:52 | 44.06625 | 26.74647 | 34010 ft | 369 kts | 306° |
| 2026-04-07 15:52 | 44.09490 | 26.68756 | 34005 ft | 367 kts | 306° |
| 2026-04-07 15:53 | 44.12334 | 26.62897 | 34005 ft | 365 kts | 306° |
| 2026-04-07 15:53 | 44.15165 | 26.57051 | 34011 ft | 364 kts | 306° |
| 2026-04-07 15:54 | 44.17998 | 26.51190 | 34005 ft | 365 kts | 306° |
| 2026-04-07 15:54 | 44.20841 | 26.45299 | 34002 ft | 367 kts | 306° |
| 2026-04-07 15:55 | 44.22733 | 26.41372 | 34000 ft | 368 kts | 306° |
| 2026-04-07 15:55 | 44.23006 | 26.40805 | 34001 ft | 368 kts | 306° |
| 2026-04-07 15:56 | 44.24481 | 26.37741 | 34001 ft | 369 kts | 306° |
| 2026-04-07 15:56 | 44.27352 | 26.31762 | 34000 ft | 371 kts | 306° |
| 2026-04-07 15:57 | 44.30222 | 26.25773 | 34001 ft | 372 kts | 306° |
| 2026-04-07 15:57 | 44.33095 | 26.19766 | 33999 ft | 372 kts | 306° |
| 2026-04-07 15:58 | 44.35967 | 26.13746 | 33994 ft | 371 kts | 306° |
| 2026-04-07 15:58 | 44.38828 | 26.07739 | 33992 ft | 371 kts | 306° |
| 2026-04-07 15:59 | 44.41686 | 26.01725 | 33989 ft | 370 kts | 306° |
| 2026-04-07 15:59 | 44.44524 | 25.95741 | 33990 ft | 369 kts | 306° |
| 2026-04-07 16:00 | 44.47350 | 25.89771 | 33991 ft | 368 kts | 306° |
| 2026-04-07 16:00 | 44.50177 | 25.83785 | 33991 ft | 368 kts | 306° |
| 2026-04-07 16:01 | 44.52997 | 25.77802 | 33992 ft | 368 kts | 306° |
| 2026-04-07 16:01 | 44.55825 | 25.71789 | 33993 ft | 369 kts | 306° |
| 2026-04-07 16:02 | 44.58637 | 25.65797 | 33993 ft | 369 kts | 306° |
| 2026-04-07 16:02 | 44.61470 | 25.59753 | 33991 ft | 370 kts | 306° |
| 2026-04-07 16:03 | 44.64291 | 25.53717 | 33992 ft | 370 kts | 306° |
| 2026-04-07 16:03 | 44.67100 | 25.47695 | 33992 ft | 370 kts | 306° |
| 2026-04-07 16:04 | 44.69915 | 25.41644 | 34002 ft | 370 kts | 306° |
| 2026-04-07 16:04 | 44.72727 | 25.35593 | 33999 ft | 369 kts | 306° |
| 2026-04-07 16:05 | 44.75527 | 25.29550 | 33997 ft | 369 kts | 306° |
| 2026-04-07 16:05 | 44.78329 | 25.23492 | 34001 ft | 368 kts | 306° |
| 2026-04-07 16:06 | 44.81122 | 25.17441 | 34000 ft | 368 kts | 306° |
| 2026-04-07 16:06 | 44.83909 | 25.11391 | 33995 ft | 368 kts | 306° |
| 2026-04-07 16:07 | 44.86695 | 25.05331 | 33997 ft | 368 kts | 306° |
| 2026-04-07 16:07 | 44.89476 | 24.99267 | 34000 ft | 368 kts | 306° |
| 2026-04-07 16:08 | 44.92258 | 24.93185 | 33999 ft | 369 kts | 306° |
| 2026-04-07 16:08 | 44.95045 | 24.87083 | 33998 ft | 370 kts | 306° |
| 2026-04-07 16:09 | 44.97823 | 24.80989 | 33999 ft | 371 kts | 306° |
| 2026-04-07 16:09 | 45.00631 | 24.74812 | 34001 ft | 371 kts | 306° |
| 2026-04-07 16:10 | 45.03417 | 24.68674 | 34002 ft | 371 kts | 306° |
| 2026-04-07 16:10 | 45.06198 | 24.62530 | 34000 ft | 371 kts | 306° |
| 2026-04-07 16:11 | 45.08961 | 24.56414 | 34004 ft | 370 kts | 306° |
| 2026-04-07 16:11 | 45.11729 | 24.50274 | 34007 ft | 370 kts | 306° |
| 2026-04-07 16:12 | 45.14501 | 24.44111 | 34015 ft | 370 kts | 306° |
| 2026-04-07 16:12 | 45.17266 | 24.37950 | 34014 ft | 370 kts | 306° |
| 2026-04-07 16:13 | 45.20032 | 24.31777 | 34000 ft | 369 kts | 306° |
| 2026-04-07 16:13 | 45.22781 | 24.25628 | 34010 ft | 368 kts | 306° |
| 2026-04-07 16:14 | 45.25523 | 24.19477 | 34010 ft | 369 kts | 306° |
| 2026-04-07 16:14 | 45.28261 | 24.13323 | 34001 ft | 368 kts | 306° |
| 2026-04-07 16:15 | 45.30994 | 24.07171 | 34009 ft | 367 kts | 306° |
| 2026-04-07 16:15 | 45.33706 | 24.01052 | 34019 ft | 369 kts | 305° |
| 2026-04-07 16:16 | 45.36442 | 23.94863 | 34014 ft | 369 kts | 305° |
| 2026-04-07 16:16 | 45.39166 | 23.88686 | 33985 ft | 370 kts | 305° |
| 2026-04-07 16:17 | 45.41894 | 23.82483 | 34022 ft | 369 kts | 305° |
| 2026-04-07 16:17 | 45.44629 | 23.76264 | 34023 ft | 371 kts | 305° |
| 2026-04-07 16:18 | 45.47367 | 23.70017 | 34020 ft | 372 kts | 305° |
| 2026-04-07 16:18 | 45.50110 | 23.63743 | 34014 ft | 373 kts | 305° |
| 2026-04-07 16:19 | 45.52835 | 23.57496 | 34021 ft | 373 kts | 305° |
| 2026-04-07 16:19 | 45.55571 | 23.51207 | 34041 ft | 372 kts | 305° |
| 2026-04-07 16:20 | 45.58304 | 23.44917 | 34016 ft | 372 kts | 305° |
| 2026-04-07 16:20 | 45.61028 | 23.38633 | 34022 ft | 373 kts | 305° |
| 2026-04-07 16:21 | 45.63736 | 23.32372 | 34024 ft | 373 kts | 305° |
| 2026-04-07 16:21 | 45.66458 | 23.26055 | 34020 ft | 373 kts | 305° |
| 2026-04-07 16:22 | 45.69182 | 23.19731 | 34027 ft | 373 kts | 305° |
| 2026-04-07 16:22 | 45.71920 | 23.13361 | 34039 ft | 374 kts | 304° |
| 2026-04-07 16:23 | 45.74627 | 23.07044 | 34039 ft | 374 kts | 304° |
| 2026-04-07 16:23 | 45.77343 | 23.00693 | 34045 ft | 374 kts | 304° |
| 2026-04-07 16:24 | 45.80071 | 22.94298 | 34044 ft | 375 kts | 304° |
| 2026-04-07 16:24 | 45.82777 | 22.87937 | 34028 ft | 376 kts | 304° |
| 2026-04-07 16:25 | 45.85044 | 22.82599 | 34052 ft | 376 kts | 304° |
| 2026-04-07 16:25 | 45.87765 | 22.76178 | 34059 ft | 377 kts | 304° |
| 2026-04-07 16:26 | 45.90496 | 22.69724 | 34059 ft | 378 kts | 304° |
| 2026-04-07 16:26 | 45.93209 | 22.63293 | 34055 ft | 379 kts | 304° |
| 2026-04-07 16:27 | 45.95963 | 22.56748 | 34053 ft | 380 kts | 304° |
| 2026-04-07 16:27 | 45.98688 | 22.50258 | 34059 ft | 380 kts | 304° |
| 2026-04-07 16:28 | 46.01419 | 22.43741 | 34053 ft | 379 kts | 304° |
| 2026-04-07 16:28 | 46.04131 | 22.37252 | 34048 ft | 378 kts | 303° |
| 2026-04-07 16:29 | 46.06826 | 22.30790 | 34057 ft | 375 kts | 303° |
| 2026-04-07 16:29 | 46.09495 | 22.24373 | 34059 ft | 374 kts | 303° |
| 2026-04-07 16:30 | 46.12167 | 22.17931 | 34059 ft | 373 kts | 303° |
| 2026-04-07 16:30 | 46.14831 | 22.11498 | 34058 ft | 374 kts | 303° |
| 2026-04-07 16:31 | 46.17509 | 22.05019 | 34064 ft | 375 kts | 303° |
| 2026-04-07 16:31 | 46.20188 | 21.98523 | 34084 ft | 377 kts | 303° |
| 2026-04-07 16:32 | 46.22869 | 21.92001 | 34073 ft | 380 kts | 303° |
| 2026-04-07 16:32 | 46.25572 | 21.85414 | 34068 ft | 381 kts | 303° |
| 2026-04-07 16:33 | 46.28249 | 21.78868 | 34063 ft | 381 kts | 303° |
| 2026-04-07 16:33 | 46.30948 | 21.72258 | 34066 ft | 380 kts | 303° |
| 2026-04-07 16:34 | 46.33643 | 21.65638 | 34068 ft | 378 kts | 303° |
| 2026-04-07 16:34 | 46.36299 | 21.59101 | 34072 ft | 377 kts | 303° |
| 2026-04-07 16:35 | 46.38953 | 21.52555 | 34075 ft | 376 kts | 303° |
| 2026-04-07 16:35 | 46.41590 | 21.46035 | 34073 ft | 375 kts | 303° |
| 2026-04-07 16:36 | 46.44230 | 21.39490 | 34073 ft | 375 kts | 303° |
| 2026-04-07 16:36 | 46.46879 | 21.32909 | 34072 ft | 375 kts | 303° |
| 2026-04-07 16:37 | 46.49494 | 21.26349 | 34072 ft | 376 kts | 302° |
| 2026-04-07 16:37 | 46.51919 | 21.19480 | 34079 ft | 378 kts | 301° |
| 2026-04-07 16:38 | 46.54271 | 21.12659 | 34073 ft | 379 kts | 300° |
| 2026-04-07 16:38 | 46.56642 | 21.05774 | 34076 ft | 380 kts | 300° |
| 2026-04-07 16:39 | 46.59000 | 20.98935 | 34075 ft | 381 kts | 300° |
| 2026-04-07 16:39 | 46.61379 | 20.92027 | 34077 ft | 381 kts | 301° |
| 2026-04-07 16:40 | 46.63758 | 20.85101 | 34073 ft | 382 kts | 301° |
| 2026-04-07 16:40 | 46.66118 | 20.78214 | 34068 ft | 382 kts | 300° |
| 2026-04-07 16:41 | 46.68487 | 20.71284 | 34067 ft | 383 kts | 300° |
| 2026-04-07 16:41 | 46.70858 | 20.64324 | 34074 ft | 383 kts | 300° |
| 2026-04-07 16:42 | 46.73211 | 20.57401 | 34076 ft | 382 kts | 300° |
| 2026-04-07 16:42 | 46.75557 | 20.50481 | 34075 ft | 382 kts | 300° |
| 2026-04-07 16:43 | 46.77920 | 20.43497 | 34077 ft | 383 kts | 300° |
| 2026-04-07 16:43 | 46.80278 | 20.36504 | 34071 ft | 383 kts | 300° |
| 2026-04-07 16:44 | 46.82612 | 20.29567 | 34076 ft | 383 kts | 300° |
| 2026-04-07 16:44 | 46.84974 | 20.22528 | 34075 ft | 383 kts | 300° |
| 2026-04-07 16:45 | 46.86935 | 20.16666 | 34074 ft | 383 kts | 300° |
| 2026-04-07 16:45 | 46.89300 | 20.09577 | 34091 ft | 383 kts | 300° |
| 2026-04-07 16:46 | 46.91610 | 20.02636 | 34090 ft | 383 kts | 300° |
| 2026-04-07 16:46 | 46.93906 | 19.95723 | 34081 ft | 384 kts | 300° |
| 2026-04-07 16:47 | 46.96234 | 19.88694 | 34102 ft | 385 kts | 300° |
| 2026-04-07 16:47 | 46.98579 | 19.81594 | 34105 ft | 387 kts | 300° |
| 2026-04-07 16:48 | 47.00939 | 19.74427 | 34104 ft | 388 kts | 300° |
| 2026-04-07 16:49 | 47.04441 | 19.63751 | 34102 ft | 390 kts | 300° |
| 2026-04-07 16:49 | 47.06811 | 19.56504 | 34102 ft | 389 kts | 300° |
| 2026-04-07 16:50 | 47.09138 | 19.49370 | 34104 ft | 388 kts | 300° |
| 2026-04-07 16:50 | 47.11502 | 19.42098 | 34099 ft | 387 kts | 300° |
| 2026-04-07 16:51 | 47.13813 | 19.34969 | 34102 ft | 387 kts | 300° |
| 2026-04-07 16:51 | 47.16204 | 19.27576 | 34102 ft | 387 kts | 300° |
| 2026-04-07 16:52 | 47.18496 | 19.20472 | 34101 ft | 387 kts | 300° |
| 2026-04-07 16:52 | 47.20828 | 19.13218 | 34101 ft | 387 kts | 300° |
| 2026-04-07 16:53 | 47.23132 | 19.06032 | 34104 ft | 388 kts | 300° |
| 2026-04-07 16:53 | 47.25456 | 18.98760 | 34104 ft | 389 kts | 299° |
| 2026-04-07 16:54 | 47.27753 | 18.91557 | 34103 ft | 390 kts | 299° |
| 2026-04-07 16:54 | 47.30076 | 18.84251 | 34112 ft | 391 kts | 299° |
| 2026-04-07 16:55 | 47.32346 | 18.77089 | 34111 ft | 392 kts | 299° |
| 2026-04-07 16:55 | 47.34655 | 18.69785 | 34109 ft | 393 kts | 299° |
| 2026-04-07 16:56 | 47.36570 | 18.63711 | 34110 ft | 393 kts | 299° |
| 2026-04-07 16:56 | 47.38861 | 18.56423 | 34114 ft | 393 kts | 299° |
| 2026-04-07 16:57 | 47.41155 | 18.49104 | 34121 ft | 393 kts | 299° |
| 2026-04-07 16:57 | 47.43452 | 18.41757 | 34124 ft | 392 kts | 299° |
| 2026-04-07 16:58 | 47.45721 | 18.34479 | 34135 ft | 392 kts | 299° |
| 2026-04-07 16:58 | 47.48004 | 18.27134 | 34128 ft | 392 kts | 299° |
| 2026-04-07 16:59 | 47.50279 | 18.19788 | 34136 ft | 392 kts | 299° |
| 2026-04-07 16:59 | 47.52537 | 18.12479 | 34138 ft | 392 kts | 299° |
| 2026-04-07 17:00 | 47.54818 | 18.05074 | 34140 ft | 392 kts | 299° |
| 2026-04-07 17:00 | 47.57051 | 17.97808 | 34134 ft | 392 kts | 298° |
| 2026-04-07 17:01 | 47.59312 | 17.90426 | 34129 ft | 392 kts | 298° |
| 2026-04-07 17:01 | 47.61549 | 17.83098 | 34129 ft | 392 kts | 298° |
| 2026-04-07 17:02 | 47.63794 | 17.75724 | 34128 ft | 393 kts | 298° |
| 2026-04-07 17:02 | 47.66043 | 17.68319 | 34132 ft | 393 kts | 298° |
| 2026-04-07 17:03 | 47.68304 | 17.60847 | 34136 ft | 394 kts | 298° |
| 2026-04-07 17:03 | 47.70535 | 17.53452 | 34140 ft | 394 kts | 298° |
| 2026-04-07 17:04 | 47.72781 | 17.45987 | 34138 ft | 396 kts | 298° |
| 2026-04-07 17:04 | 47.74986 | 17.38637 | 34152 ft | 396 kts | 298° |
| 2026-04-07 17:05 | 47.77238 | 17.31104 | 34156 ft | 397 kts | 298° |
| 2026-04-07 17:05 | 47.79428 | 17.23761 | 34160 ft | 398 kts | 298° |
| 2026-04-07 17:06 | 47.81686 | 17.16201 | 34156 ft | 399 kts | 300° |
| 2026-04-07 17:06 | 47.84507 | 17.09151 | 34171 ft | 395 kts | 308° |
| 2026-04-07 17:07 | 47.87985 | 17.02708 | 34175 ft | 395 kts | 312° |
| 2026-04-07 17:07 | 47.91459 | 16.96666 | 34166 ft | 396 kts | 313° |
| 2026-04-07 17:08 | 47.95040 | 16.90394 | 34168 ft | 397 kts | 312° |
| 2026-04-07 17:08 | 47.98597 | 16.84112 | 34173 ft | 398 kts | 312° |
| 2026-04-07 17:09 | 48.02164 | 16.77787 | 34185 ft | 398 kts | 312° |
| 2026-04-07 17:09 | 48.05766 | 16.71384 | 34171 ft | 396 kts | 312° |
| 2026-04-07 17:10 | 48.09291 | 16.65106 | 34180 ft | 394 kts | 312° |
| 2026-04-07 17:10 | 48.12851 | 16.58659 | 34177 ft | 393 kts | 311° |
| 2026-04-07 17:11 | 48.16263 | 16.52289 | 34182 ft | 392 kts | 311° |
| 2026-04-07 17:11 | 48.19677 | 16.45895 | 34185 ft | 393 kts | 311° |
| 2026-04-07 17:12 | 48.23094 | 16.39491 | 34183 ft | 395 kts | 311° |
| 2026-04-07 17:12 | 48.26536 | 16.33039 | 34187 ft | 397 kts | 311° |
| 2026-04-07 17:13 | 48.30008 | 16.26517 | 34184 ft | 399 kts | 311° |
| 2026-04-07 17:13 | 48.33488 | 16.19966 | 34183 ft | 401 kts | 311° |
| 2026-04-07 17:14 | 48.36953 | 16.13423 | 34185 ft | 401 kts | 311° |
| 2026-04-07 17:14 | 48.40432 | 16.06839 | 34195 ft | 401 kts | 311° |
| 2026-04-07 17:15 | 48.43879 | 16.00300 | 34193 ft | 400 kts | 310° |
| 2026-04-07 17:15 | 48.47339 | 15.93723 | 34187 ft | 399 kts | 310° |
| 2026-04-07 17:16 | 48.50816 | 15.87098 | 34193 ft | 398 kts | 310° |
| 2026-04-07 17:16 | 48.54204 | 15.80623 | 34193 ft | 398 kts | 310° |
| 2026-04-07 17:17 | 48.57641 | 15.74039 | 34202 ft | 398 kts | 310° |
| 2026-04-07 17:17 | 48.61063 | 15.67468 | 34200 ft | 397 kts | 310° |
| 2026-04-07 17:18 | 48.64489 | 15.60875 | 34206 ft | 397 kts | 310° |
| 2026-04-07 17:18 | 48.67397 | 15.55263 | 34224 ft | 397 kts | 310° |
| 2026-04-07 17:19 | 48.70775 | 15.48732 | 34205 ft | 398 kts | 310° |
| 2026-04-07 17:19 | 48.74185 | 15.42123 | 34224 ft | 398 kts | 310° |
| 2026-04-07 17:20 | 48.77589 | 15.35507 | 34203 ft | 398 kts | 310° |
| 2026-04-07 17:20 | 48.80995 | 15.28871 | 34222 ft | 398 kts | 310° |
| 2026-04-07 17:21 | 48.84411 | 15.22200 | 34218 ft | 398 kts | 310° |
| 2026-04-07 17:21 | 48.87800 | 15.15569 | 34212 ft | 397 kts | 310° |
| 2026-04-07 17:22 | 48.91155 | 15.08744 | 34217 ft | 398 kts | 308° |
| 2026-04-07 17:22 | 48.94295 | 15.01793 | 34222 ft | 398 kts | 307° |
| 2026-04-07 17:23 | 48.97434 | 14.94772 | 34230 ft | 398 kts | 307° |
| 2026-04-07 17:23 | 49.00725 | 14.87419 | 34221 ft | 399 kts | 307° |
| 2026-04-07 17:24 | 49.03871 | 14.80390 | 34226 ft | 399 kts | 307° |
| 2026-04-07 17:24 | 49.07003 | 14.73386 | 34234 ft | 399 kts | 307° |
| 2026-04-07 17:25 | 49.09605 | 14.67555 | 34242 ft | 398 kts | 307° |
| 2026-04-07 17:25 | 49.13214 | 14.59436 | 34246 ft | 398 kts | 307° |
| 2026-04-07 17:26 | 49.15816 | 14.53573 | 34255 ft | 398 kts | 307° |
| 2026-04-07 17:26 | 49.18974 | 14.46435 | 34255 ft | 399 kts | 307° |
| 2026-04-07 17:27 | 49.22092 | 14.39371 | 34261 ft | 399 kts | 307° |
| 2026-04-07 17:27 | 49.25174 | 14.32368 | 34258 ft | 399 kts | 307° |
| 2026-04-07 17:28 | 49.28283 | 14.25287 | 34262 ft | 399 kts | 307° |
| 2026-04-07 17:28 | 49.31371 | 14.18232 | 34261 ft | 399 kts | 307° |
| 2026-04-07 17:29 | 49.34460 | 14.11160 | 34264 ft | 398 kts | 307° |
| 2026-04-07 17:29 | 49.37571 | 14.04017 | 34270 ft | 398 kts | 307° |
| 2026-04-07 17:30 | 49.40640 | 13.96952 | 34265 ft | 397 kts | 307° |
| 2026-04-07 17:30 | 49.43701 | 13.89888 | 34266 ft | 397 kts | 307° |
| 2026-04-07 17:31 | 49.46751 | 13.82831 | 34269 ft | 398 kts | 307° |
| 2026-04-07 17:31 | 49.49822 | 13.75704 | 34268 ft | 398 kts | 307° |
| 2026-04-07 17:32 | 49.52904 | 13.68534 | 34263 ft | 399 kts | 307° |
| 2026-04-07 17:32 | 49.55977 | 13.61363 | 34265 ft | 399 kts | 307° |
| 2026-04-07 17:33 | 49.59077 | 13.54110 | 34268 ft | 400 kts | 307° |
| 2026-04-07 17:33 | 49.62155 | 13.46891 | 34267 ft | 400 kts | 307° |
| 2026-04-07 17:34 | 49.65212 | 13.39697 | 34268 ft | 401 kts | 306° |
| 2026-04-07 17:34 | 49.68261 | 13.32507 | 34268 ft | 402 kts | 306° |
| 2026-04-07 17:35 | 49.71410 | 13.25059 | 34265 ft | 402 kts | 306° |
| 2026-04-07 17:35 | 49.73940 | 13.19061 | 34265 ft | 402 kts | 306° |
| 2026-04-07 17:36 | 49.77089 | 13.11573 | 34270 ft | 403 kts | 306° |
| 2026-04-07 17:36 | 49.80134 | 13.04318 | 34263 ft | 404 kts | 306° |
| 2026-04-07 17:37 | 49.83181 | 12.97034 | 34275 ft | 405 kts | 306° |
| 2026-04-07 17:37 | 49.86256 | 12.89664 | 34278 ft | 405 kts | 306° |
| 2026-04-07 17:38 | 49.89322 | 12.82293 | 34282 ft | 406 kts | 306° |
| 2026-04-07 17:38 | 49.92221 | 12.75304 | 34277 ft | 407 kts | 306° |
| 2026-04-07 17:39 | 49.95270 | 12.67936 | 34284 ft | 408 kts | 306° |
| 2026-04-07 17:39 | 49.98348 | 12.60473 | 34288 ft | 408 kts | 306° |
| 2026-04-07 17:40 | 50.01296 | 12.53309 | 34288 ft | 409 kts | 306° |
| 2026-04-07 17:40 | 50.04311 | 12.45865 | 34280 ft | 410 kts | 301° |
| 2026-04-07 17:41 | 50.06241 | 12.37365 | 34293 ft | 418 kts | 287° |
| 2026-04-07 17:41 | 50.06800 | 12.28569 | 34285 ft | 425 kts | 277° |
| 2026-04-07 17:42 | 50.06846 | 12.19338 | 34278 ft | 426 kts | 276° |
| 2026-04-07 17:42 | 50.06885 | 12.10083 | 34287 ft | 425 kts | 276° |
| 2026-04-07 17:43 | 50.06960 | 12.00891 | 34286 ft | 425 kts | 276° |
| 2026-04-07 17:43 | 50.07047 | 11.91683 | 34288 ft | 426 kts | 276° |
| 2026-04-07 17:44 | 50.07128 | 11.82602 | 34292 ft | 427 kts | 276° |
| 2026-04-07 17:44 | 50.07202 | 11.73352 | 34288 ft | 428 kts | 276° |
| 2026-04-07 17:45 | 50.07269 | 11.64048 | 34292 ft | 428 kts | 276° |
| 2026-04-07 17:45 | 50.07327 | 11.54700 | 34283 ft | 428 kts | 276° |
| 2026-04-07 17:46 | 50.07379 | 11.45383 | 34282 ft | 428 kts | 276° |
| 2026-04-07 17:46 | 50.07417 | 11.37449 | 34283 ft | 427 kts | 276° |
| 2026-04-07 17:47 | 50.07455 | 11.28154 | 34286 ft | 427 kts | 276° |
| 2026-04-07 17:47 | 50.07694 | 11.18856 | 34288 ft | 422 kts | 281° |
| 2026-04-07 17:48 | 50.08352 | 11.09887 | 34283 ft | 423 kts | 282° |
| 2026-04-07 17:48 | 50.09030 | 11.00744 | 34290 ft | 423 kts | 281° |
| 2026-04-07 17:49 | 50.09689 | 10.91491 | 34296 ft | 424 kts | 281° |
| 2026-04-07 17:49 | 50.10327 | 10.82335 | 34292 ft | 425 kts | 281° |
| 2026-04-07 17:50 | 50.10956 | 10.73145 | 34299 ft | 426 kts | 281° |
| 2026-04-07 17:50 | 50.11578 | 10.63963 | 34292 ft | 428 kts | 281° |
| 2026-04-07 17:51 | 50.12205 | 10.54628 | 34301 ft | 429 kts | 280° |
| 2026-04-07 17:51 | 50.12818 | 10.45362 | 34295 ft | 431 kts | 280° |
| 2026-04-07 17:52 | 50.13427 | 10.36057 | 34292 ft | 431 kts | 280° |
| 2026-04-07 17:52 | 50.14148 | 10.26694 | 34292 ft | 429 kts | 285° |
| 2026-04-07 17:53 | 50.15689 | 10.17674 | 34298 ft | 426 kts | 290° |
| 2026-04-07 17:53 | 50.18179 | 10.04297 | 34293 ft | 426 kts | 289° |
| 2026-04-07 17:54 | 50.19800 | 9.95410 | 34300 ft | 427 kts | 289° |
| 2026-04-07 17:54 | 50.21413 | 9.86485 | 34298 ft | 426 kts | 289° |
| 2026-04-07 17:55 | 50.23009 | 9.77416 | 34312 ft | 427 kts | 288° |
| 2026-04-07 17:55 | 50.24374 | 9.68350 | 34307 ft | 427 kts | 287° |
| 2026-04-07 17:56 | 50.25703 | 9.59196 | 34294 ft | 427 kts | 286° |
| 2026-04-07 17:56 | 50.26760 | 9.51995 | 34292 ft | 426 kts | 287° |
| 2026-04-07 17:57 | 50.28138 | 9.42683 | 34298 ft | 426 kts | 287° |
| 2026-04-07 17:57 | 50.29454 | 9.33794 | 34290 ft | 427 kts | 286° |
| 2026-04-07 17:58 | 50.30788 | 9.24721 | 34294 ft | 427 kts | 286° |
| 2026-04-07 17:58 | 50.32127 | 9.15559 | 34294 ft | 427 kts | 286° |
| 2026-04-07 17:59 | 50.33473 | 9.06304 | 34293 ft | 427 kts | 286° |
| 2026-04-07 17:59 | 50.34779 | 8.97266 | 34293 ft | 428 kts | 285° |
| 2026-04-07 18:00 | 50.36082 | 8.88196 | 34296 ft | 429 kts | 285° |
| 2026-04-07 18:00 | 50.37390 | 8.79036 | 34297 ft | 429 kts | 285° |
| 2026-04-07 18:01 | 50.38741 | 8.69505 | 34290 ft | 430 kts | 285° |
| 2026-04-07 18:01 | 50.39995 | 8.60600 | 34297 ft | 431 kts | 285° |
| 2026-04-07 18:02 | 50.41291 | 8.51346 | 34300 ft | 432 kts | 284° |
| 2026-04-07 18:02 | 50.42590 | 8.42020 | 34297 ft | 433 kts | 284° |
| 2026-04-07 18:03 | 50.43822 | 8.33122 | 34295 ft | 434 kts | 284° |
| 2026-04-07 18:03 | 50.45095 | 8.23872 | 34301 ft | 434 kts | 284° |
| 2026-04-07 18:04 | 50.46306 | 8.15018 | 34288 ft | 433 kts | 284° |
| 2026-04-07 18:04 | 50.47583 | 8.05615 | 34295 ft | 432 kts | 284° |
| 2026-04-07 18:05 | 50.48837 | 7.96321 | 34298 ft | 432 kts | 284° |
| 2026-04-07 18:05 | 50.50064 | 7.87164 | 34277 ft | 433 kts | 284° |
| 2026-04-07 18:06 | 50.50678 | 7.82577 | 33817 ft | 438 kts | 284° |
| 2026-04-07 18:06 | 50.51308 | 7.77854 | 33037 ft | 442 kts | 284° |
| 2026-04-07 18:06 | 50.51936 | 7.73122 | 32312 ft | 443 kts | 284° |
| 2026-04-07 18:06 | 50.52558 | 7.68407 | 31585 ft | 445 kts | 284° |
| 2026-04-07 18:07 | 50.52996 | 7.65073 | 31081 ft | 446 kts | 284° |
| 2026-04-07 18:07 | 50.53609 | 7.60407 | 30310 ft | 447 kts | 284° |
| 2026-04-07 18:07 | 50.54243 | 7.55579 | 29515 ft | 449 kts | 284° |
| 2026-04-07 18:07 | 50.54863 | 7.50833 | 28735 ft | 450 kts | 283° |
| 2026-04-07 18:08 | 50.55478 | 7.46009 | 28447 ft | 440 kts | 282° |
| 2026-04-07 18:08 | 50.55893 | 7.41219 | 28240 ft | 433 kts | 277° |
| 2026-04-07 18:08 | 50.55979 | 7.36523 | 27833 ft | 429 kts | 272° |
| 2026-04-07 18:08 | 50.55981 | 7.31836 | 27246 ft | 427 kts | 272° |
| 2026-04-07 18:09 | 50.55991 | 7.27156 | 26650 ft | 426 kts | 273° |
| 2026-04-07 18:09 | 50.56018 | 7.22497 | 26051 ft | 425 kts | 273° |
| 2026-04-07 18:09 | 50.56050 | 7.17821 | 25453 ft | 424 kts | 273° |
| 2026-04-07 18:09 | 50.56030 | 7.13244 | 24869 ft | 422 kts | 271° |
| 2026-04-07 18:10 | 50.55914 | 7.08603 | 24266 ft | 421 kts | 270° |
| 2026-04-07 18:10 | 50.55784 | 7.04041 | 23680 ft | 419 kts | 270° |
| 2026-04-07 18:10 | 50.55669 | 6.99456 | 23083 ft | 418 kts | 270° |
| 2026-04-07 18:10 | 50.55560 | 6.94636 | 22542 ft | 414 kts | 271° |
| 2026-04-07 18:11 | 50.55460 | 6.90300 | 22359 ft | 405 kts | 270° |
| 2026-04-07 18:11 | 50.55356 | 6.85924 | 22298 ft | 401 kts | 270° |
| 2026-04-07 18:11 | 50.55253 | 6.81555 | 22301 ft | 400 kts | 270° |
| 2026-04-07 18:11 | 50.55146 | 6.77147 | 22305 ft | 403 kts | 270° |
| 2026-04-07 18:12 | 50.55042 | 6.72806 | 22299 ft | 405 kts | 271° |
| 2026-04-07 18:12 | 50.55119 | 6.68430 | 22289 ft | 403 kts | 277° |
| 2026-04-07 18:12 | 50.55492 | 6.64063 | 22293 ft | 401 kts | 283° |
| 2026-04-07 18:12 | 50.56034 | 6.59690 | 22295 ft | 401 kts | 283° |
| 2026-04-07 18:13 | 50.56577 | 6.55388 | 22290 ft | 402 kts | 283° |
| 2026-04-07 18:13 | 50.57112 | 6.51109 | 22288 ft | 401 kts | 283° |
| 2026-04-07 18:13 | 50.57642 | 6.46788 | 22286 ft | 401 kts | 283° |
| 2026-04-07 18:13 | 50.58166 | 6.42466 | 22281 ft | 401 kts | 283° |
| 2026-04-07 18:14 | 50.58713 | 6.38227 | 22284 ft | 400 kts | 285° |
| 2026-04-07 18:14 | 50.59402 | 6.33841 | 22276 ft | 399 kts | 287° |
| 2026-04-07 18:14 | 50.60106 | 6.29707 | 22288 ft | 399 kts | 287° |
| 2026-04-07 18:14 | 50.60828 | 6.25526 | 22288 ft | 398 kts | 287° |
| 2026-04-07 18:15 | 50.61552 | 6.21315 | 22288 ft | 398 kts | 287° |
| 2026-04-07 18:15 | 50.62269 | 6.17087 | 22288 ft | 399 kts | 287° |
| 2026-04-07 18:15 | 50.62978 | 6.12850 | 22287 ft | 399 kts | 287° |
| 2026-04-07 18:15 | 50.63680 | 6.08611 | 22286 ft | 399 kts | 287° |
| 2026-04-07 18:16 | 50.64373 | 6.04400 | 22287 ft | 399 kts | 286° |
| 2026-04-07 18:16 | 50.65071 | 6.00138 | 22291 ft | 400 kts | 286° |
| 2026-04-07 18:16 | 50.65764 | 5.95891 | 22258 ft | 399 kts | 286° |
| 2026-04-07 18:16 | 50.66451 | 5.91665 | 21922 ft | 397 kts | 286° |
| 2026-04-07 18:17 | 50.67125 | 5.87505 | 21463 ft | 394 kts | 286° |
| 2026-04-07 18:17 | 50.67802 | 5.83327 | 20960 ft | 392 kts | 286° |
| 2026-04-07 18:17 | 50.68485 | 5.79095 | 20431 ft | 390 kts | 285° |
| 2026-04-07 18:17 | 50.69146 | 5.74991 | 19937 ft | 387 kts | 285° |
| 2026-04-07 18:18 | 50.69811 | 5.70855 | 19449 ft | 385 kts | 285° |
| 2026-04-07 18:18 | 50.70469 | 5.66742 | 18953 ft | 382 kts | 285° |
| 2026-04-07 18:18 | 50.71116 | 5.62688 | 18494 ft | 380 kts | 285° |
| 2026-04-07 18:18 | 50.71760 | 5.58655 | 17987 ft | 378 kts | 285° |
| 2026-04-07 18:19 | 50.72396 | 5.54654 | 17522 ft | 375 kts | 285° |
| 2026-04-07 18:19 | 50.73030 | 5.50662 | 17027 ft | 374 kts | 285° |
| 2026-04-07 18:19 | 50.73659 | 5.46690 | 16530 ft | 372 kts | 285° |
| 2026-04-07 18:19 | 50.74283 | 5.42736 | 16055 ft | 370 kts | 285° |
| 2026-04-07 18:20 | 50.74906 | 5.38779 | 15588 ft | 368 kts | 285° |
| 2026-04-07 18:20 | 50.75522 | 5.34863 | 15112 ft | 366 kts | 285° |
| 2026-04-07 18:20 | 50.76131 | 5.30974 | 14648 ft | 365 kts | 285° |
| 2026-04-07 18:20 | 50.76761 | 5.26946 | 14336 ft | 357 kts | 285° |
| 2026-04-07 18:21 | 50.77348 | 5.23177 | 14267 ft | 344 kts | 285° |
| 2026-04-07 18:21 | 50.77910 | 5.19563 | 14176 ft | 332 kts | 285° |
| 2026-04-07 18:21 | 50.78467 | 5.15971 | 14086 ft | 320 kts | 285° |
| 2026-04-07 18:21 | 50.78977 | 5.12684 | 13971 ft | 310 kts | 285° |
| 2026-04-07 18:22 | 50.79481 | 5.09416 | 13800 ft | 302 kts | 285° |
| 2026-04-07 18:22 | 50.79967 | 5.06276 | 13547 ft | 298 kts | 285° |
| 2026-04-07 18:22 | 50.80467 | 5.03037 | 13165 ft | 298 kts | 285° |
| 2026-04-07 18:22 | 50.80946 | 4.99883 | 12789 ft | 296 kts | 282° |
| 2026-04-07 18:23 | 50.81028 | 4.96619 | 12326 ft | 299 kts | 266° |
| 2026-04-07 18:23 | 50.80778 | 4.93339 | 11962 ft | 299 kts | 263° |
| 2026-04-07 18:23 | 50.80466 | 4.90092 | 11645 ft | 297 kts | 263° |
| 2026-04-07 18:23 | 50.80149 | 4.86886 | 11311 ft | 296 kts | 262° |
| 2026-04-07 18:24 | 50.79832 | 4.83663 | 10962 ft | 296 kts | 262° |
| 2026-04-07 18:24 | 50.79517 | 4.80456 | 10622 ft | 295 kts | 262° |
| 2026-04-07 18:24 | 50.79203 | 4.77247 | 10281 ft | 294 kts | 262° |
| 2026-04-07 18:24 | 50.78891 | 4.74060 | 9933 ft | 293 kts | 262° |
| 2026-04-07 18:25 | 50.78687 | 4.71954 | 9718 ft | 292 kts | 262° |
| 2026-04-07 18:25 | 50.78281 | 4.67739 | 9271 ft | 291 kts | 262° |
| 2026-04-07 18:25 | 50.78080 | 4.65642 | 9058 ft | 290 kts | 261° |
| 2026-04-07 18:25 | 50.77712 | 4.62490 | 8695 ft | 291 kts | 259° |
| 2026-04-07 18:26 | 50.77324 | 4.59372 | 8351 ft | 290 kts | 260° |
| 2026-04-07 18:26 | 50.76968 | 4.56234 | 8030 ft | 288 kts | 261° |
| 2026-04-07 18:26 | 50.76625 | 4.53107 | 7721 ft | 287 kts | 261° |
| 2026-04-07 18:26 | 50.76289 | 4.50048 | 7411 ft | 286 kts | 261° |
| 2026-04-07 18:27 | 50.75947 | 4.46958 | 7095 ft | 284 kts | 261° |
| 2026-04-07 18:27 | 50.75606 | 4.43898 | 6781 ft | 283 kts | 260° |
| 2026-04-07 18:27 | 50.75268 | 4.40891 | 6681 ft | 273 kts | 260° |
| 2026-04-07 18:27 | 50.74942 | 4.37984 | 6600 ft | 262 kts | 260° |
| 2026-04-07 18:28 | 50.74633 | 4.35251 | 6400 ft | 243 kts | 260° |
| 2026-04-07 18:28 | 50.74343 | 4.32682 | 6098 ft | 234 kts | 260° |
| 2026-04-07 18:28 | 50.74065 | 4.30201 | 5928 ft | 226 kts | 260° |
| 2026-04-07 18:28 | 50.73792 | 4.27800 | 5638 ft | 223 kts | 260° |
| 2026-04-07 18:29 | 50.73518 | 4.25389 | 5280 ft | 224 kts | 259° |
| 2026-04-07 18:29 | 50.73239 | 4.22971 | 4941 ft | 224 kts | 259° |
| 2026-04-07 18:29 | 50.72967 | 4.20552 | 4615 ft | 221 kts | 263° |
| 2026-04-07 18:29 | 50.73174 | 4.18176 | 4154 ft | 222 kts | 299° |
| 2026-04-07 18:30 | 50.74207 | 4.16438 | 3741 ft | 218 kts | 333° |
| 2026-04-07 18:30 | 50.75583 | 4.15493 | 3408 ft | 215 kts | 343° |
| 2026-04-07 18:30 | 50.76996 | 4.14716 | 3092 ft | 214 kts | 344° |
| 2026-04-07 18:30 | 50.78368 | 4.13971 | 3002 ft | 205 kts | 346° |
| 2026-04-07 18:31 | 50.79720 | 4.13852 | 2989 ft | 188 kts | 21° |
| 2026-04-07 18:31 | 50.80814 | 4.14858 | 2993 ft | 180 kts | 48° |
| 2026-04-07 18:31 | 50.81501 | 4.16461 | 3000 ft | 175 kts | 67° |
| 2026-04-07 18:31 | 50.82015 | 4.18237 | 3000 ft | 180 kts | 68° |
| 2026-04-07 18:32 | 50.82528 | 4.20049 | 3002 ft | 181 kts | 68° |
| 2026-04-07 18:32 | 50.83038 | 4.21847 | 2998 ft | 182 kts | 68° |
| 2026-04-07 18:32 | 50.83563 | 4.23688 | 2990 ft | 180 kts | 68° |
| 2026-04-07 18:32 | 50.84061 | 4.25426 | 2974 ft | 166 kts | 68° |
| 2026-04-07 18:33 | 50.84516 | 4.26994 | 2946 ft | 152 kts | 68° |
| 2026-04-07 18:33 | 50.84949 | 4.28491 | 2916 ft | 151 kts | 68° |
| 2026-04-07 18:33 | 50.85394 | 4.30014 | 2641 ft | 155 kts | 67° |
| 2026-04-07 18:33 | 50.85846 | 4.31583 | 2197 ft | 152 kts | 67° |
| 2026-04-07 18:34 | 50.86250 | 4.33054 | 1863 ft | 146 kts | 69° |
| 2026-04-07 18:34 | 50.86654 | 4.34556 | 1524 ft | 149 kts | 67° |
| 2026-04-07 18:34 | 50.87097 | 4.36004 | 1430 ft | 148 kts | 66° |
| 2026-04-07 18:34 | 50.87519 | 4.37527 | 1256 ft | 156 kts | 65° |
| 2026-04-07 18:35 | 50.88021 | 4.39033 | 1053 ft | 153 kts | 63° |
| 2026-04-07 18:35 | 50.88455 | 4.40533 | 836 ft | 148 kts | 68° |
| 2026-04-07 18:35 | 50.88858 | 4.42031 | 668 ft | 147 kts | 66° |
| 2026-04-07 18:35 | 50.89287 | 4.43499 | 477 ft | 147 kts | 65° |
| 2026-04-07 18:36 | 50.89718 | 4.44971 | 306 ft | 147 kts | 65° |
| 2026-04-07 18:36 | 50.90148 | 4.46465 | 133 ft | 150 kts | 66° |
| 2026-04-07 18:36 | 50.90529 | 4.47789 | 122 ft | 103 kts | 65° |
| 2026-04-07 18:36 | 50.90649 | 4.48299 | 124 ft | 23 kts | 105° |
| 2026-04-07 18:37 | 50.90614 | 4.48415 | 125 ft | 0 kts | 119° |
| 2026-04-07 18:38 | 50.90613 | 4.48417 | 120 ft | 1 kts | 119° |
| 2026-04-07 18:38 | 50.90603 | 4.48447 | 125 ft | 6 kts | 118° |
| 2026-04-07 18:38 | 50.90574 | 4.48527 | 123 ft | 11 kts | 120° |
| 2026-04-07 18:39 | 50.90542 | 4.48650 | 121 ft | 12 kts | 94° |
| 2026-04-07 18:39 | 50.90566 | 4.48790 | 117 ft | 14 kts | 68° |
| 2026-04-07 18:39 | 50.90598 | 4.48907 | 121 ft | 0 kts | 66° |
| 2026-04-07 18:40 | 50.90600 | 4.48916 | 121 ft | 3 kts | 68° |
| 2026-04-07 18:40 | 50.90618 | 4.48993 | 118 ft | 9 kts | 70° |
| 2026-04-07 18:40 | 50.90660 | 4.49126 | 118 ft | 17 kts | 65° |
| 2026-04-07 18:40 | 50.90696 | 4.49251 | 116 ft | 12 kts | 64° |
| 2026-04-07 18:41 | 50.90739 | 4.49399 | 117 ft | 14 kts | 65° |
| 2026-04-07 18:41 | 50.90763 | 4.49541 | 123 ft | 9 kts | 110° |
| 2026-04-07 18:41 | 50.90694 | 4.49570 | 126 ft | 14 kts | 188° |
| 2026-04-07 18:41 | 50.90596 | 4.49533 | 121 ft | 0 kts | 195° |
| 2026-04-07 18:42 | 50.90565 | 4.49520 | 123 ft | 9 kts | 195° |
| 2026-04-07 18:42 | 50.90477 | 4.49485 | 134 ft | 17 kts | 193° |
| 2026-04-07 18:42 | 50.90365 | 4.49440 | 141 ft | 16 kts | 194° |
| 2026-04-07 18:42 | 50.90248 | 4.49392 | 146 ft | 18 kts | 194° |
| 2026-04-07 18:43 | 50.90117 | 4.49337 | 152 ft | 17 kts | 194° |
| 2026-04-07 18:43 | 50.90002 | 4.49285 | 157 ft | 16 kts | 205° |
| 2026-04-07 18:43 | 50.89948 | 4.49122 | 158 ft | 19 kts | 245° |
| 2026-04-07 18:43 | 50.89891 | 4.48925 | 156 ft | 14 kts | 245° |
| 2026-04-07 18:44 | 50.89858 | 4.48818 | 155 ft | 12 kts | 247° |
| 2026-04-07 18:44 | 50.89882 | 4.48726 | 153 ft | 10 kts | 323° |
| 2026-04-07 18:44 | 50.89914 | 4.48694 | 152 ft | 3 kts | 324° |
| 2026-04-07 18:44 | 50.89928 | 4.48682 | 151 ft | 2 kts | 332° |
| 2026-04-07 18:45 | 50.89934 | 4.48677 | 151 ft | 0 kts | 333° |